<?xml version="1.0" encoding="UTF-8" standalone="no" ?>
<gpx xmlns="http://www.topografix.com/GPX/1/1" xmlns:xsi="http://www.w3.org/2001/XMLSchema-instance" xsi:schemaLocation="http://www.topografix.com/GPX/1/1 http://www.topografix.com/GPX/1/1/gpx.xsd" version="1.1" creator="VisuGPX - https://www.visugpx.com">
  <metadata>
    <name>cime de jérusalem</name>
    <desc><![CDATA[ski rando, bonne poudreuse.]]></desc>
  </metadata>
  <trk>
    <name><![CDATA[cime de jérusalem_1]]></name>
    <trkseg>
      <trkpt lat="43.83009" lon="6.97206">
        <ele>1407.308105</ele>
        <time>2013-01-24T08:39:02Z</time>
      </trkpt>
      <trkpt lat="43.83009" lon="6.97206">
        <ele>1407.307861</ele>
        <time>2013-01-24T08:39:03Z</time>
      </trkpt>
      <trkpt lat="43.8301" lon="6.97218">
        <ele>1409.1</ele>
        <time>2013-01-24T08:47:24Z</time>
      </trkpt>
      <trkpt lat="43.82998" lon="6.97232">
        <ele>1409.9</ele>
        <time>2013-01-24T08:47:45Z</time>
      </trkpt>
      <trkpt lat="43.82991" lon="6.97238">
        <ele>1411.3</ele>
        <time>2013-01-24T08:47:53Z</time>
      </trkpt>
      <trkpt lat="43.82984" lon="6.97245">
        <ele>1412.7</ele>
        <time>2013-01-24T08:48:01Z</time>
      </trkpt>
      <trkpt lat="43.82977" lon="6.97252">
        <ele>1413.3</ele>
        <time>2013-01-24T08:48:09Z</time>
      </trkpt>
      <trkpt lat="43.82971" lon="6.9726">
        <ele>1414.5</ele>
        <time>2013-01-24T08:48:16Z</time>
      </trkpt>
      <trkpt lat="43.82966" lon="6.97269">
        <ele>1415.7</ele>
        <time>2013-01-24T08:48:23Z</time>
      </trkpt>
      <trkpt lat="43.82961" lon="6.97279">
        <ele>1415.7</ele>
        <time>2013-01-24T08:48:31Z</time>
      </trkpt>
      <trkpt lat="43.82961" lon="6.9728">
        <ele>1415.9</ele>
        <time>2013-01-24T08:48:32Z</time>
      </trkpt>
      <trkpt lat="43.82954" lon="6.97301">
        <ele>1417</ele>
        <time>2013-01-24T08:51:26Z</time>
      </trkpt>
      <trkpt lat="43.82954" lon="6.97302">
        <ele>1417.3</ele>
        <time>2013-01-24T08:51:27Z</time>
      </trkpt>
      <trkpt lat="43.82953" lon="6.97325">
        <ele>1420.3</ele>
        <time>2013-01-24T08:51:50Z</time>
      </trkpt>
      <trkpt lat="43.82951" lon="6.97336">
        <ele>1422.7</ele>
        <time>2013-01-24T08:52:15Z</time>
      </trkpt>
      <trkpt lat="43.82945" lon="6.97346">
        <ele>1423.1</ele>
        <time>2013-01-24T08:52:28Z</time>
      </trkpt>
      <trkpt lat="43.82944" lon="6.97346">
        <ele>1423.3</ele>
        <time>2013-01-24T08:52:29Z</time>
      </trkpt>
      <trkpt lat="43.8293" lon="6.9736">
        <ele>1427.4</ele>
        <time>2013-01-24T08:52:54Z</time>
      </trkpt>
      <trkpt lat="43.82923" lon="6.97366">
        <ele>1430.3</ele>
        <time>2013-01-24T08:53:08Z</time>
      </trkpt>
      <trkpt lat="43.82915" lon="6.9737">
        <ele>1432.7</ele>
        <time>2013-01-24T08:53:21Z</time>
      </trkpt>
      <trkpt lat="43.82907" lon="6.97375">
        <ele>1433.9</ele>
        <time>2013-01-24T08:53:41Z</time>
      </trkpt>
      <trkpt lat="43.82906" lon="6.97375">
        <ele>1434.4</ele>
        <time>2013-01-24T08:53:42Z</time>
      </trkpt>
      <trkpt lat="43.8289" lon="6.9738">
        <ele>1436.7</ele>
        <time>2013-01-24T08:54:15Z</time>
      </trkpt>
      <trkpt lat="43.82884" lon="6.97389">
        <ele>1437.4</ele>
        <time>2013-01-24T08:54:26Z</time>
      </trkpt>
      <trkpt lat="43.82881" lon="6.974">
        <ele>1439.7</ele>
        <time>2013-01-24T08:54:38Z</time>
      </trkpt>
      <trkpt lat="43.82877" lon="6.9741">
        <ele>1440.4</ele>
        <time>2013-01-24T08:54:50Z</time>
      </trkpt>
      <trkpt lat="43.82877" lon="6.97411">
        <ele>1440.3</ele>
        <time>2013-01-24T08:54:51Z</time>
      </trkpt>
      <trkpt lat="43.82867" lon="6.97429">
        <ele>1442.2</ele>
        <time>2013-01-24T08:55:12Z</time>
      </trkpt>
      <trkpt lat="43.82862" lon="6.97438">
        <ele>1444.4</ele>
        <time>2013-01-24T08:55:24Z</time>
      </trkpt>
      <trkpt lat="43.82857" lon="6.97449">
        <ele>1446.1</ele>
        <time>2013-01-24T08:55:37Z</time>
      </trkpt>
      <trkpt lat="43.82856" lon="6.97461">
        <ele>1447.5</ele>
        <time>2013-01-24T08:56:12Z</time>
      </trkpt>
      <trkpt lat="43.82856" lon="6.97462">
        <ele>1447.6</ele>
        <time>2013-01-24T08:56:13Z</time>
      </trkpt>
      <trkpt lat="43.82851" lon="6.97484">
        <ele>1450.3</ele>
        <time>2013-01-24T08:56:36Z</time>
      </trkpt>
      <trkpt lat="43.82856" lon="6.97493">
        <ele>1452.5</ele>
        <time>2013-01-24T08:56:49Z</time>
      </trkpt>
      <trkpt lat="43.82861" lon="6.97504">
        <ele>1453.1</ele>
        <time>2013-01-24T08:57:03Z</time>
      </trkpt>
      <trkpt lat="43.82861" lon="6.97515">
        <ele>1456.1</ele>
        <time>2013-01-24T08:57:16Z</time>
      </trkpt>
      <trkpt lat="43.82861" lon="6.97516">
        <ele>1456.4</ele>
        <time>2013-01-24T08:57:17Z</time>
      </trkpt>
      <trkpt lat="43.8286" lon="6.97539">
        <ele>1459.7</ele>
        <time>2013-01-24T08:57:43Z</time>
      </trkpt>
      <trkpt lat="43.82862" lon="6.9755">
        <ele>1461.7</ele>
        <time>2013-01-24T08:57:56Z</time>
      </trkpt>
      <trkpt lat="43.82865" lon="6.97561">
        <ele>1462.5</ele>
        <time>2013-01-24T08:58:09Z</time>
      </trkpt>
      <trkpt lat="43.82869" lon="6.97572">
        <ele>1463.5</ele>
        <time>2013-01-24T08:58:23Z</time>
      </trkpt>
      <trkpt lat="43.8287" lon="6.97573">
        <ele>1463.6</ele>
        <time>2013-01-24T08:58:24Z</time>
      </trkpt>
      <trkpt lat="43.82882" lon="6.97587">
        <ele>1466.9</ele>
        <time>2013-01-24T08:58:46Z</time>
      </trkpt>
      <trkpt lat="43.82888" lon="6.97596">
        <ele>1467.6</ele>
        <time>2013-01-24T08:58:56Z</time>
      </trkpt>
      <trkpt lat="43.82894" lon="6.97604">
        <ele>1467</ele>
        <time>2013-01-24T08:59:05Z</time>
      </trkpt>
      <trkpt lat="43.829" lon="6.97612">
        <ele>1467.2</ele>
        <time>2013-01-24T08:59:14Z</time>
      </trkpt>
      <trkpt lat="43.82906" lon="6.97622">
        <ele>1467.4</ele>
        <time>2013-01-24T08:59:23Z</time>
      </trkpt>
      <trkpt lat="43.82909" lon="6.97633">
        <ele>1468.5</ele>
        <time>2013-01-24T08:59:33Z</time>
      </trkpt>
      <trkpt lat="43.82909" lon="6.97634">
        <ele>1468.6</ele>
        <time>2013-01-24T08:59:34Z</time>
      </trkpt>
      <trkpt lat="43.82908" lon="6.97656">
        <ele>1469.1</ele>
        <time>2013-01-24T08:59:55Z</time>
      </trkpt>
      <trkpt lat="43.82903" lon="6.97666">
        <ele>1468.7</ele>
        <time>2013-01-24T09:00:06Z</time>
      </trkpt>
      <trkpt lat="43.82897" lon="6.97673">
        <ele>1470.7</ele>
        <time>2013-01-24T09:00:17Z</time>
      </trkpt>
      <trkpt lat="43.82889" lon="6.97677">
        <ele>1472.7</ele>
        <time>2013-01-24T09:00:28Z</time>
      </trkpt>
      <trkpt lat="43.82881" lon="6.97681">
        <ele>1473.3</ele>
        <time>2013-01-24T09:00:41Z</time>
      </trkpt>
      <trkpt lat="43.8288" lon="6.97682">
        <ele>1473.3</ele>
        <time>2013-01-24T09:00:42Z</time>
      </trkpt>
      <trkpt lat="43.82867" lon="6.97696">
        <ele>1475.5</ele>
        <time>2013-01-24T09:01:05Z</time>
      </trkpt>
      <trkpt lat="43.82862" lon="6.97705">
        <ele>1475.9</ele>
        <time>2013-01-24T09:01:16Z</time>
      </trkpt>
      <trkpt lat="43.82855" lon="6.97712">
        <ele>1478.3</ele>
        <time>2013-01-24T09:01:28Z</time>
      </trkpt>
      <trkpt lat="43.82847" lon="6.97718">
        <ele>1479.5</ele>
        <time>2013-01-24T09:01:41Z</time>
      </trkpt>
      <trkpt lat="43.82839" lon="6.97723">
        <ele>1481.8</ele>
        <time>2013-01-24T09:01:55Z</time>
      </trkpt>
      <trkpt lat="43.82838" lon="6.97723">
        <ele>1481.9</ele>
        <time>2013-01-24T09:01:56Z</time>
      </trkpt>
      <trkpt lat="43.82822" lon="6.97717">
        <ele>1483.9</ele>
        <time>2013-01-24T09:02:34Z</time>
      </trkpt>
      <trkpt lat="43.82814" lon="6.97718">
        <ele>1487.5</ele>
        <time>2013-01-24T09:02:47Z</time>
      </trkpt>
      <trkpt lat="43.82805" lon="6.97722">
        <ele>1488.5</ele>
        <time>2013-01-24T09:03:00Z</time>
      </trkpt>
      <trkpt lat="43.82805" lon="6.97722">
        <ele>1488.5</ele>
        <time>2013-01-24T09:03:01Z</time>
      </trkpt>
      <trkpt lat="43.82788" lon="6.97718">
        <ele>1490.6</ele>
        <time>2013-01-24T09:03:31Z</time>
      </trkpt>
      <trkpt lat="43.82779" lon="6.97715">
        <ele>1492.4</ele>
        <time>2013-01-24T09:03:43Z</time>
      </trkpt>
      <trkpt lat="43.82771" lon="6.97716">
        <ele>1492.7</ele>
        <time>2013-01-24T09:03:58Z</time>
      </trkpt>
      <trkpt lat="43.82762" lon="6.97715">
        <ele>1494.8</ele>
        <time>2013-01-24T09:04:10Z</time>
      </trkpt>
      <trkpt lat="43.82761" lon="6.97714">
        <ele>1495</ele>
        <time>2013-01-24T09:04:11Z</time>
      </trkpt>
      <trkpt lat="43.82753" lon="6.97713">
        <ele>1494.4</ele>
        <time>2013-01-24T09:05:54Z</time>
      </trkpt>
      <trkpt lat="43.82746" lon="6.97722">
        <ele>1495.8</ele>
        <time>2013-01-24T09:07:42Z</time>
      </trkpt>
      <trkpt lat="43.82735" lon="6.97739">
        <ele>1495.7</ele>
        <time>2013-01-24T09:08:01Z</time>
      </trkpt>
      <trkpt lat="43.8273" lon="6.97748">
        <ele>1496.5</ele>
        <time>2013-01-24T09:08:12Z</time>
      </trkpt>
      <trkpt lat="43.82724" lon="6.97757">
        <ele>1496.8</ele>
        <time>2013-01-24T09:08:22Z</time>
      </trkpt>
      <trkpt lat="43.82719" lon="6.97766">
        <ele>1496.3</ele>
        <time>2013-01-24T09:08:33Z</time>
      </trkpt>
      <trkpt lat="43.82714" lon="6.97775">
        <ele>1499.6</ele>
        <time>2013-01-24T09:08:43Z</time>
      </trkpt>
      <trkpt lat="43.82714" lon="6.97776">
        <ele>1499.5</ele>
        <time>2013-01-24T09:08:44Z</time>
      </trkpt>
      <trkpt lat="43.82702" lon="6.97791">
        <ele>1500.8</ele>
        <time>2013-01-24T09:09:05Z</time>
      </trkpt>
      <trkpt lat="43.82693" lon="6.97794">
        <ele>1500.6</ele>
        <time>2013-01-24T09:09:15Z</time>
      </trkpt>
      <trkpt lat="43.82685" lon="6.9779">
        <ele>1501.9</ele>
        <time>2013-01-24T09:09:25Z</time>
      </trkpt>
      <trkpt lat="43.82677" lon="6.97789">
        <ele>1502.4</ele>
        <time>2013-01-24T09:09:34Z</time>
      </trkpt>
      <trkpt lat="43.82668" lon="6.9779">
        <ele>1501.6</ele>
        <time>2013-01-24T09:09:43Z</time>
      </trkpt>
      <trkpt lat="43.8266" lon="6.97794">
        <ele>1502.7</ele>
        <time>2013-01-24T09:09:52Z</time>
      </trkpt>
      <trkpt lat="43.8266" lon="6.97795">
        <ele>1502.2</ele>
        <time>2013-01-24T09:09:53Z</time>
      </trkpt>
      <trkpt lat="43.82649" lon="6.97809">
        <ele>1501.7</ele>
        <time>2013-01-24T09:10:08Z</time>
      </trkpt>
      <trkpt lat="43.82645" lon="6.9782">
        <ele>1501.5</ele>
        <time>2013-01-24T09:10:18Z</time>
      </trkpt>
      <trkpt lat="43.8264" lon="6.9783">
        <ele>1503.4</ele>
        <time>2013-01-24T09:10:31Z</time>
      </trkpt>
      <trkpt lat="43.82633" lon="6.97836">
        <ele>1505.5</ele>
        <time>2013-01-24T09:10:44Z</time>
      </trkpt>
      <trkpt lat="43.82626" lon="6.97844">
        <ele>1506.3</ele>
        <time>2013-01-24T09:10:54Z</time>
      </trkpt>
      <trkpt lat="43.82626" lon="6.97845">
        <ele>1506.3</ele>
        <time>2013-01-24T09:10:55Z</time>
      </trkpt>
      <trkpt lat="43.82621" lon="6.97867">
        <ele>1507.6</ele>
        <time>2013-01-24T09:11:14Z</time>
      </trkpt>
      <trkpt lat="43.82621" lon="6.97879">
        <ele>1506.8</ele>
        <time>2013-01-24T09:11:23Z</time>
      </trkpt>
      <trkpt lat="43.82621" lon="6.97891">
        <ele>1508</ele>
        <time>2013-01-24T09:11:33Z</time>
      </trkpt>
      <trkpt lat="43.82621" lon="6.97902">
        <ele>1509.3</ele>
        <time>2013-01-24T09:11:56Z</time>
      </trkpt>
      <trkpt lat="43.8262" lon="6.97904">
        <ele>1509.6</ele>
        <time>2013-01-24T09:11:57Z</time>
      </trkpt>
      <trkpt lat="43.8261" lon="6.97919">
        <ele>1510.2</ele>
        <time>2013-01-24T09:12:49Z</time>
      </trkpt>
      <trkpt lat="43.82602" lon="6.97921">
        <ele>1512.3</ele>
        <time>2013-01-24T09:12:57Z</time>
      </trkpt>
      <trkpt lat="43.82601" lon="6.97922">
        <ele>1512.3</ele>
        <time>2013-01-24T09:12:58Z</time>
      </trkpt>
      <trkpt lat="43.82586" lon="6.97927">
        <ele>1510.9</ele>
        <time>2013-01-24T09:13:13Z</time>
      </trkpt>
      <trkpt lat="43.8258" lon="6.97937">
        <ele>1511.6</ele>
        <time>2013-01-24T09:13:22Z</time>
      </trkpt>
      <trkpt lat="43.82577" lon="6.97948">
        <ele>1513.4</ele>
        <time>2013-01-24T09:13:30Z</time>
      </trkpt>
      <trkpt lat="43.82575" lon="6.9796">
        <ele>1512.6</ele>
        <time>2013-01-24T09:13:38Z</time>
      </trkpt>
      <trkpt lat="43.82572" lon="6.97971">
        <ele>1512.6</ele>
        <time>2013-01-24T09:13:47Z</time>
      </trkpt>
      <trkpt lat="43.82569" lon="6.97982">
        <ele>1513.2</ele>
        <time>2013-01-24T09:13:55Z</time>
      </trkpt>
      <trkpt lat="43.82565" lon="6.97992">
        <ele>1513.1</ele>
        <time>2013-01-24T09:14:03Z</time>
      </trkpt>
      <trkpt lat="43.82564" lon="6.97993">
        <ele>1513.1</ele>
        <time>2013-01-24T09:14:04Z</time>
      </trkpt>
      <trkpt lat="43.82554" lon="6.9801">
        <ele>1513.9</ele>
        <time>2013-01-24T09:14:19Z</time>
      </trkpt>
      <trkpt lat="43.82546" lon="6.98017">
        <ele>1514.6</ele>
        <time>2013-01-24T09:14:28Z</time>
      </trkpt>
      <trkpt lat="43.82539" lon="6.98023">
        <ele>1514.7</ele>
        <time>2013-01-24T09:14:35Z</time>
      </trkpt>
      <trkpt lat="43.82531" lon="6.98028">
        <ele>1515</ele>
        <time>2013-01-24T09:14:42Z</time>
      </trkpt>
      <trkpt lat="43.82523" lon="6.98034">
        <ele>1515.2</ele>
        <time>2013-01-24T09:14:49Z</time>
      </trkpt>
      <trkpt lat="43.82516" lon="6.9804">
        <ele>1514.3</ele>
        <time>2013-01-24T09:14:57Z</time>
      </trkpt>
      <trkpt lat="43.82509" lon="6.98047">
        <ele>1514.7</ele>
        <time>2013-01-24T09:15:04Z</time>
      </trkpt>
      <trkpt lat="43.82508" lon="6.98048">
        <ele>1514.5</ele>
        <time>2013-01-24T09:15:05Z</time>
      </trkpt>
      <trkpt lat="43.82501" lon="6.98066">
        <ele>1515.6</ele>
        <time>2013-01-24T09:15:19Z</time>
      </trkpt>
      <trkpt lat="43.82499" lon="6.98077">
        <ele>1514.5</ele>
        <time>2013-01-24T09:15:27Z</time>
      </trkpt>
      <trkpt lat="43.82494" lon="6.98087">
        <ele>1515.3</ele>
        <time>2013-01-24T09:15:34Z</time>
      </trkpt>
      <trkpt lat="43.82489" lon="6.98097">
        <ele>1516.3</ele>
        <time>2013-01-24T09:15:43Z</time>
      </trkpt>
      <trkpt lat="43.82484" lon="6.98106">
        <ele>1517.5</ele>
        <time>2013-01-24T09:15:53Z</time>
      </trkpt>
      <trkpt lat="43.82477" lon="6.98112">
        <ele>1518.8</ele>
        <time>2013-01-24T09:16:03Z</time>
      </trkpt>
      <trkpt lat="43.8247" lon="6.98119">
        <ele>1520.2</ele>
        <time>2013-01-24T09:16:12Z</time>
      </trkpt>
      <trkpt lat="43.82469" lon="6.9812">
        <ele>1520.5</ele>
        <time>2013-01-24T09:16:13Z</time>
      </trkpt>
      <trkpt lat="43.82458" lon="6.98137">
        <ele>1520.5</ele>
        <time>2013-01-24T09:16:30Z</time>
      </trkpt>
      <trkpt lat="43.82455" lon="6.98149">
        <ele>1521.7</ele>
        <time>2013-01-24T09:16:42Z</time>
      </trkpt>
      <trkpt lat="43.82453" lon="6.98161">
        <ele>1523.9</ele>
        <time>2013-01-24T09:16:55Z</time>
      </trkpt>
      <trkpt lat="43.8245" lon="6.98172">
        <ele>1524.7</ele>
        <time>2013-01-24T09:17:08Z</time>
      </trkpt>
      <trkpt lat="43.82446" lon="6.98183">
        <ele>1526.5</ele>
        <time>2013-01-24T09:17:19Z</time>
      </trkpt>
      <trkpt lat="43.82446" lon="6.98184">
        <ele>1526.4</ele>
        <time>2013-01-24T09:17:20Z</time>
      </trkpt>
      <trkpt lat="43.82437" lon="6.98204">
        <ele>1528.6</ele>
        <time>2013-01-24T09:17:38Z</time>
      </trkpt>
      <trkpt lat="43.82432" lon="6.98213">
        <ele>1528.6</ele>
        <time>2013-01-24T09:17:46Z</time>
      </trkpt>
      <trkpt lat="43.82426" lon="6.98222">
        <ele>1529.7</ele>
        <time>2013-01-24T09:17:55Z</time>
      </trkpt>
      <trkpt lat="43.82422" lon="6.98232">
        <ele>1529.4</ele>
        <time>2013-01-24T09:18:04Z</time>
      </trkpt>
      <trkpt lat="43.82418" lon="6.98242">
        <ele>1530.8</ele>
        <time>2013-01-24T09:18:14Z</time>
      </trkpt>
      <trkpt lat="43.82415" lon="6.98253">
        <ele>1531.9</ele>
        <time>2013-01-24T09:18:24Z</time>
      </trkpt>
      <trkpt lat="43.82415" lon="6.98254">
        <ele>1531.8</ele>
        <time>2013-01-24T09:18:25Z</time>
      </trkpt>
      <trkpt lat="43.82412" lon="6.98277">
        <ele>1534.6</ele>
        <time>2013-01-24T09:18:43Z</time>
      </trkpt>
      <trkpt lat="43.82411" lon="6.98288">
        <ele>1534.6</ele>
        <time>2013-01-24T09:18:51Z</time>
      </trkpt>
      <trkpt lat="43.8241" lon="6.98299">
        <ele>1535.3</ele>
        <time>2013-01-24T09:19:00Z</time>
      </trkpt>
      <trkpt lat="43.8241" lon="6.98311">
        <ele>1535.9</ele>
        <time>2013-01-24T09:19:09Z</time>
      </trkpt>
      <trkpt lat="43.8241" lon="6.98322">
        <ele>1537</ele>
        <time>2013-01-24T09:19:18Z</time>
      </trkpt>
      <trkpt lat="43.82409" lon="6.98334">
        <ele>1537.7</ele>
        <time>2013-01-24T09:19:27Z</time>
      </trkpt>
      <trkpt lat="43.82409" lon="6.98335">
        <ele>1537.8</ele>
        <time>2013-01-24T09:19:28Z</time>
      </trkpt>
      <trkpt lat="43.82405" lon="6.98357">
        <ele>1539</ele>
        <time>2013-01-24T09:19:45Z</time>
      </trkpt>
      <trkpt lat="43.82402" lon="6.98368">
        <ele>1540.4</ele>
        <time>2013-01-24T09:19:54Z</time>
      </trkpt>
      <trkpt lat="43.82399" lon="6.9838">
        <ele>1540.8</ele>
        <time>2013-01-24T09:20:03Z</time>
      </trkpt>
      <trkpt lat="43.82398" lon="6.98391">
        <ele>1540.8</ele>
        <time>2013-01-24T09:20:13Z</time>
      </trkpt>
      <trkpt lat="43.82397" lon="6.98402">
        <ele>1541.7</ele>
        <time>2013-01-24T09:20:21Z</time>
      </trkpt>
      <trkpt lat="43.82397" lon="6.98414">
        <ele>1540.1</ele>
        <time>2013-01-24T09:20:30Z</time>
      </trkpt>
      <trkpt lat="43.82397" lon="6.98415">
        <ele>1540.1</ele>
        <time>2013-01-24T09:20:31Z</time>
      </trkpt>
      <trkpt lat="43.82395" lon="6.98438">
        <ele>1540.3</ele>
        <time>2013-01-24T09:20:49Z</time>
      </trkpt>
      <trkpt lat="43.82395" lon="6.9845">
        <ele>1540.1</ele>
        <time>2013-01-24T09:20:58Z</time>
      </trkpt>
      <trkpt lat="43.82394" lon="6.98462">
        <ele>1540</ele>
        <time>2013-01-24T09:21:08Z</time>
      </trkpt>
      <trkpt lat="43.82393" lon="6.98474">
        <ele>1541.3</ele>
        <time>2013-01-24T09:21:19Z</time>
      </trkpt>
      <trkpt lat="43.82391" lon="6.98486">
        <ele>1541.7</ele>
        <time>2013-01-24T09:21:30Z</time>
      </trkpt>
      <trkpt lat="43.82389" lon="6.98497">
        <ele>1543.8</ele>
        <time>2013-01-24T09:21:41Z</time>
      </trkpt>
      <trkpt lat="43.82389" lon="6.98498">
        <ele>1543.8</ele>
        <time>2013-01-24T09:21:42Z</time>
      </trkpt>
      <trkpt lat="43.82385" lon="6.9852">
        <ele>1544.8</ele>
        <time>2013-01-24T09:21:59Z</time>
      </trkpt>
      <trkpt lat="43.82383" lon="6.98532">
        <ele>1544.1</ele>
        <time>2013-01-24T09:22:07Z</time>
      </trkpt>
      <trkpt lat="43.82382" lon="6.98543">
        <ele>1544.2</ele>
        <time>2013-01-24T09:22:15Z</time>
      </trkpt>
      <trkpt lat="43.82381" lon="6.98554">
        <ele>1543.7</ele>
        <time>2013-01-24T09:22:23Z</time>
      </trkpt>
      <trkpt lat="43.82381" lon="6.98566">
        <ele>1544.8</ele>
        <time>2013-01-24T09:22:32Z</time>
      </trkpt>
      <trkpt lat="43.8238" lon="6.98578">
        <ele>1544.4</ele>
        <time>2013-01-24T09:22:42Z</time>
      </trkpt>
      <trkpt lat="43.8238" lon="6.98579">
        <ele>1544.5</ele>
        <time>2013-01-24T09:22:43Z</time>
      </trkpt>
      <trkpt lat="43.82379" lon="6.98601">
        <ele>1545.6</ele>
        <time>2013-01-24T09:23:00Z</time>
      </trkpt>
      <trkpt lat="43.82378" lon="6.98613">
        <ele>1545.9</ele>
        <time>2013-01-24T09:23:09Z</time>
      </trkpt>
      <trkpt lat="43.82376" lon="6.98624">
        <ele>1545.7</ele>
        <time>2013-01-24T09:23:19Z</time>
      </trkpt>
      <trkpt lat="43.82373" lon="6.98636">
        <ele>1547.4</ele>
        <time>2013-01-24T09:23:30Z</time>
      </trkpt>
      <trkpt lat="43.82373" lon="6.98647">
        <ele>1548.5</ele>
        <time>2013-01-24T09:23:40Z</time>
      </trkpt>
      <trkpt lat="43.82375" lon="6.98659">
        <ele>1548.6</ele>
        <time>2013-01-24T09:23:49Z</time>
      </trkpt>
      <trkpt lat="43.82375" lon="6.98661">
        <ele>1548.4</ele>
        <time>2013-01-24T09:23:50Z</time>
      </trkpt>
      <trkpt lat="43.82376" lon="6.98683">
        <ele>1548.8</ele>
        <time>2013-01-24T09:24:06Z</time>
      </trkpt>
      <trkpt lat="43.82376" lon="6.98695">
        <ele>1547.8</ele>
        <time>2013-01-24T09:24:14Z</time>
      </trkpt>
      <trkpt lat="43.82377" lon="6.98706">
        <ele>1547.4</ele>
        <time>2013-01-24T09:24:20Z</time>
      </trkpt>
      <trkpt lat="43.82379" lon="6.98717">
        <ele>1546.1</ele>
        <time>2013-01-24T09:24:28Z</time>
      </trkpt>
      <trkpt lat="43.82381" lon="6.98729">
        <ele>1545.9</ele>
        <time>2013-01-24T09:24:37Z</time>
      </trkpt>
      <trkpt lat="43.82383" lon="6.98741">
        <ele>1545.9</ele>
        <time>2013-01-24T09:24:45Z</time>
      </trkpt>
      <trkpt lat="43.82387" lon="6.98752">
        <ele>1546.8</ele>
        <time>2013-01-24T09:24:53Z</time>
      </trkpt>
      <trkpt lat="43.82387" lon="6.98753">
        <ele>1546.9</ele>
        <time>2013-01-24T09:24:54Z</time>
      </trkpt>
      <trkpt lat="43.82395" lon="6.98772">
        <ele>1547</ele>
        <time>2013-01-24T09:25:10Z</time>
      </trkpt>
      <trkpt lat="43.82398" lon="6.98783">
        <ele>1546.6</ele>
        <time>2013-01-24T09:25:19Z</time>
      </trkpt>
      <trkpt lat="43.82401" lon="6.98794">
        <ele>1546.8</ele>
        <time>2013-01-24T09:25:28Z</time>
      </trkpt>
      <trkpt lat="43.82401" lon="6.98807">
        <ele>1549.1</ele>
        <time>2013-01-24T09:26:01Z</time>
      </trkpt>
      <trkpt lat="43.82401" lon="6.98808">
        <ele>1548.8</ele>
        <time>2013-01-24T09:26:02Z</time>
      </trkpt>
      <trkpt lat="43.82398" lon="6.9883">
        <ele>1548.9</ele>
        <time>2013-01-24T09:26:16Z</time>
      </trkpt>
      <trkpt lat="43.82397" lon="6.98841">
        <ele>1548.8</ele>
        <time>2013-01-24T09:26:25Z</time>
      </trkpt>
      <trkpt lat="43.82395" lon="6.98852">
        <ele>1549.5</ele>
        <time>2013-01-24T09:26:33Z</time>
      </trkpt>
      <trkpt lat="43.82395" lon="6.98864">
        <ele>1549.8</ele>
        <time>2013-01-24T09:26:41Z</time>
      </trkpt>
      <trkpt lat="43.82396" lon="6.98876">
        <ele>1549.9</ele>
        <time>2013-01-24T09:26:50Z</time>
      </trkpt>
      <trkpt lat="43.82397" lon="6.98888">
        <ele>1550.7</ele>
        <time>2013-01-24T09:26:59Z</time>
      </trkpt>
      <trkpt lat="43.82398" lon="6.98899">
        <ele>1551.9</ele>
        <time>2013-01-24T09:27:08Z</time>
      </trkpt>
      <trkpt lat="43.82398" lon="6.98901">
        <ele>1551.9</ele>
        <time>2013-01-24T09:27:09Z</time>
      </trkpt>
      <trkpt lat="43.82395" lon="6.98922">
        <ele>1552.7</ele>
        <time>2013-01-24T09:27:25Z</time>
      </trkpt>
      <trkpt lat="43.82391" lon="6.98932">
        <ele>1554.2</ele>
        <time>2013-01-24T09:27:34Z</time>
      </trkpt>
      <trkpt lat="43.82385" lon="6.98942">
        <ele>1555</ele>
        <time>2013-01-24T09:27:43Z</time>
      </trkpt>
      <trkpt lat="43.8238" lon="6.98952">
        <ele>1554.6</ele>
        <time>2013-01-24T09:27:52Z</time>
      </trkpt>
      <trkpt lat="43.82374" lon="6.98961">
        <ele>1555.1</ele>
        <time>2013-01-24T09:28:00Z</time>
      </trkpt>
      <trkpt lat="43.82369" lon="6.98971">
        <ele>1555.6</ele>
        <time>2013-01-24T09:28:08Z</time>
      </trkpt>
      <trkpt lat="43.82365" lon="6.9898">
        <ele>1554.9</ele>
        <time>2013-01-24T09:28:16Z</time>
      </trkpt>
      <trkpt lat="43.82364" lon="6.98982">
        <ele>1554.9</ele>
        <time>2013-01-24T09:28:17Z</time>
      </trkpt>
      <trkpt lat="43.82359" lon="6.99003">
        <ele>1554.9</ele>
        <time>2013-01-24T09:28:35Z</time>
      </trkpt>
      <trkpt lat="43.82356" lon="6.99014">
        <ele>1556.3</ele>
        <time>2013-01-24T09:28:44Z</time>
      </trkpt>
      <trkpt lat="43.82354" lon="6.99025">
        <ele>1556.6</ele>
        <time>2013-01-24T09:28:53Z</time>
      </trkpt>
      <trkpt lat="43.82352" lon="6.99036">
        <ele>1556.7</ele>
        <time>2013-01-24T09:29:02Z</time>
      </trkpt>
      <trkpt lat="43.8235" lon="6.99048">
        <ele>1557.9</ele>
        <time>2013-01-24T09:29:11Z</time>
      </trkpt>
      <trkpt lat="43.82348" lon="6.99059">
        <ele>1557.2</ele>
        <time>2013-01-24T09:29:20Z</time>
      </trkpt>
      <trkpt lat="43.82348" lon="6.99061">
        <ele>1557.2</ele>
        <time>2013-01-24T09:29:21Z</time>
      </trkpt>
      <trkpt lat="43.82344" lon="6.99083">
        <ele>1558.8</ele>
        <time>2013-01-24T09:29:43Z</time>
      </trkpt>
      <trkpt lat="43.82342" lon="6.99094">
        <ele>1560.2</ele>
        <time>2013-01-24T09:29:53Z</time>
      </trkpt>
      <trkpt lat="43.82337" lon="6.99104">
        <ele>1562.1</ele>
        <time>2013-01-24T09:30:04Z</time>
      </trkpt>
      <trkpt lat="43.82332" lon="6.99112">
        <ele>1562.1</ele>
        <time>2013-01-24T09:30:13Z</time>
      </trkpt>
      <trkpt lat="43.82328" lon="6.99122">
        <ele>1561.9</ele>
        <time>2013-01-24T09:30:21Z</time>
      </trkpt>
      <trkpt lat="43.82328" lon="6.99124">
        <ele>1562</ele>
        <time>2013-01-24T09:30:22Z</time>
      </trkpt>
      <trkpt lat="43.82319" lon="6.99142">
        <ele>1562.4</ele>
        <time>2013-01-24T09:31:45Z</time>
      </trkpt>
      <trkpt lat="43.82318" lon="6.99142">
        <ele>1562.7</ele>
        <time>2013-01-24T09:31:46Z</time>
      </trkpt>
      <trkpt lat="43.82302" lon="6.99144">
        <ele>1562.5</ele>
        <time>2013-01-24T09:32:16Z</time>
      </trkpt>
      <trkpt lat="43.82293" lon="6.99144">
        <ele>1563.3</ele>
        <time>2013-01-24T09:32:28Z</time>
      </trkpt>
      <trkpt lat="43.82285" lon="6.99143">
        <ele>1564</ele>
        <time>2013-01-24T09:32:40Z</time>
      </trkpt>
      <trkpt lat="43.82276" lon="6.99142">
        <ele>1565.2</ele>
        <time>2013-01-24T09:32:53Z</time>
      </trkpt>
      <trkpt lat="43.82275" lon="6.99141">
        <ele>1565.4</ele>
        <time>2013-01-24T09:32:54Z</time>
      </trkpt>
      <trkpt lat="43.82259" lon="6.9914">
        <ele>1566.7</ele>
        <time>2013-01-24T09:33:32Z</time>
      </trkpt>
      <trkpt lat="43.82251" lon="6.99139">
        <ele>1568.1</ele>
        <time>2013-01-24T09:34:30Z</time>
      </trkpt>
      <trkpt lat="43.8225" lon="6.99139">
        <ele>1568.1</ele>
        <time>2013-01-24T09:34:31Z</time>
      </trkpt>
      <trkpt lat="43.82233" lon="6.99137">
        <ele>1569.3</ele>
        <time>2013-01-24T09:34:54Z</time>
      </trkpt>
      <trkpt lat="43.82224" lon="6.99137">
        <ele>1569.2</ele>
        <time>2013-01-24T09:35:05Z</time>
      </trkpt>
      <trkpt lat="43.82216" lon="6.99136">
        <ele>1569.7</ele>
        <time>2013-01-24T09:35:16Z</time>
      </trkpt>
      <trkpt lat="43.82207" lon="6.99134">
        <ele>1569.9</ele>
        <time>2013-01-24T09:35:26Z</time>
      </trkpt>
      <trkpt lat="43.82199" lon="6.99132">
        <ele>1568.8</ele>
        <time>2013-01-24T09:35:36Z</time>
      </trkpt>
      <trkpt lat="43.82198" lon="6.99131">
        <ele>1568.7</ele>
        <time>2013-01-24T09:35:37Z</time>
      </trkpt>
      <trkpt lat="43.82182" lon="6.99129">
        <ele>1568.1</ele>
        <time>2013-01-24T09:35:55Z</time>
      </trkpt>
      <trkpt lat="43.82173" lon="6.99128">
        <ele>1568.2</ele>
        <time>2013-01-24T09:36:05Z</time>
      </trkpt>
      <trkpt lat="43.82164" lon="6.99127">
        <ele>1567.7</ele>
        <time>2013-01-24T09:36:18Z</time>
      </trkpt>
      <trkpt lat="43.82156" lon="6.99126">
        <ele>1567.4</ele>
        <time>2013-01-24T09:36:29Z</time>
      </trkpt>
      <trkpt lat="43.82147" lon="6.99126">
        <ele>1568.2</ele>
        <time>2013-01-24T09:36:51Z</time>
      </trkpt>
      <trkpt lat="43.82147" lon="6.99126">
        <ele>1568.3</ele>
        <time>2013-01-24T09:36:52Z</time>
      </trkpt>
      <trkpt lat="43.8213" lon="6.99124">
        <ele>1568.9</ele>
        <time>2013-01-24T09:37:13Z</time>
      </trkpt>
      <trkpt lat="43.82122" lon="6.99124">
        <ele>1568.2</ele>
        <time>2013-01-24T09:37:25Z</time>
      </trkpt>
      <trkpt lat="43.82113" lon="6.99124">
        <ele>1569.1</ele>
        <time>2013-01-24T09:37:35Z</time>
      </trkpt>
      <trkpt lat="43.82104" lon="6.99124">
        <ele>1569.4</ele>
        <time>2013-01-24T09:37:45Z</time>
      </trkpt>
      <trkpt lat="43.82096" lon="6.99124">
        <ele>1569.3</ele>
        <time>2013-01-24T09:37:55Z</time>
      </trkpt>
      <trkpt lat="43.82095" lon="6.99124">
        <ele>1569.3</ele>
        <time>2013-01-24T09:37:56Z</time>
      </trkpt>
      <trkpt lat="43.82079" lon="6.99121">
        <ele>1569.1</ele>
        <time>2013-01-24T09:38:18Z</time>
      </trkpt>
      <trkpt lat="43.8207" lon="6.99119">
        <ele>1569.2</ele>
        <time>2013-01-24T09:38:52Z</time>
      </trkpt>
      <trkpt lat="43.82061" lon="6.99117">
        <ele>1569.7</ele>
        <time>2013-01-24T09:39:03Z</time>
      </trkpt>
      <trkpt lat="43.8206" lon="6.99117">
        <ele>1569.7</ele>
        <time>2013-01-24T09:39:04Z</time>
      </trkpt>
      <trkpt lat="43.82044" lon="6.99119">
        <ele>1569.2</ele>
        <time>2013-01-24T09:39:23Z</time>
      </trkpt>
      <trkpt lat="43.82035" lon="6.99122">
        <ele>1569.8</ele>
        <time>2013-01-24T09:39:32Z</time>
      </trkpt>
      <trkpt lat="43.82028" lon="6.99128">
        <ele>1567.6</ele>
        <time>2013-01-24T09:39:44Z</time>
      </trkpt>
      <trkpt lat="43.8202" lon="6.99134">
        <ele>1569.9</ele>
        <time>2013-01-24T09:39:57Z</time>
      </trkpt>
      <trkpt lat="43.82013" lon="6.9914">
        <ele>1569.2</ele>
        <time>2013-01-24T09:40:10Z</time>
      </trkpt>
      <trkpt lat="43.82012" lon="6.9914">
        <ele>1569</ele>
        <time>2013-01-24T09:40:11Z</time>
      </trkpt>
      <trkpt lat="43.81996" lon="6.99149">
        <ele>1570.7</ele>
        <time>2013-01-24T09:40:43Z</time>
      </trkpt>
      <trkpt lat="43.81987" lon="6.99151">
        <ele>1572.2</ele>
        <time>2013-01-24T09:41:02Z</time>
      </trkpt>
      <trkpt lat="43.81979" lon="6.99152">
        <ele>1573.4</ele>
        <time>2013-01-24T09:41:19Z</time>
      </trkpt>
      <trkpt lat="43.81978" lon="6.99152">
        <ele>1573.5</ele>
        <time>2013-01-24T09:41:20Z</time>
      </trkpt>
      <trkpt lat="43.81962" lon="6.99153">
        <ele>1577.1</ele>
        <time>2013-01-24T09:41:50Z</time>
      </trkpt>
      <trkpt lat="43.81959" lon="6.99164">
        <ele>1579.9</ele>
        <time>2013-01-24T09:42:18Z</time>
      </trkpt>
      <trkpt lat="43.81961" lon="6.99176">
        <ele>1582.4</ele>
        <time>2013-01-24T09:42:36Z</time>
      </trkpt>
      <trkpt lat="43.81961" lon="6.99177">
        <ele>1582.2</ele>
        <time>2013-01-24T09:42:37Z</time>
      </trkpt>
      <trkpt lat="43.81964" lon="6.992">
        <ele>1585.7</ele>
        <time>2013-01-24T09:43:13Z</time>
      </trkpt>
      <trkpt lat="43.81966" lon="6.99213">
        <ele>1586.7</ele>
        <time>2013-01-24T09:43:31Z</time>
      </trkpt>
      <trkpt lat="43.81966" lon="6.99224">
        <ele>1589.4</ele>
        <time>2013-01-24T09:43:47Z</time>
      </trkpt>
      <trkpt lat="43.81966" lon="6.99225">
        <ele>1589.7</ele>
        <time>2013-01-24T09:43:48Z</time>
      </trkpt>
      <trkpt lat="43.81952" lon="6.99235">
        <ele>1593.1</ele>
        <time>2013-01-24T09:44:34Z</time>
      </trkpt>
      <trkpt lat="43.81944" lon="6.99236">
        <ele>1595.9</ele>
        <time>2013-01-24T09:44:52Z</time>
      </trkpt>
      <trkpt lat="43.81943" lon="6.99236">
        <ele>1596</ele>
        <time>2013-01-24T09:44:53Z</time>
      </trkpt>
      <trkpt lat="43.81926" lon="6.99235">
        <ele>1599.6</ele>
        <time>2013-01-24T09:45:24Z</time>
      </trkpt>
      <trkpt lat="43.81918" lon="6.99236">
        <ele>1601.7</ele>
        <time>2013-01-24T09:45:41Z</time>
      </trkpt>
      <trkpt lat="43.81909" lon="6.99237">
        <ele>1604</ele>
        <time>2013-01-24T09:45:59Z</time>
      </trkpt>
      <trkpt lat="43.81909" lon="6.99237">
        <ele>1603.9</ele>
        <time>2013-01-24T09:46:00Z</time>
      </trkpt>
      <trkpt lat="43.81893" lon="6.99245">
        <ele>1605.9</ele>
        <time>2013-01-24T09:47:02Z</time>
      </trkpt>
      <trkpt lat="43.81893" lon="6.99246">
        <ele>1605.9</ele>
        <time>2013-01-24T09:47:03Z</time>
      </trkpt>
      <trkpt lat="43.81896" lon="6.99269">
        <ele>1608.7</ele>
        <time>2013-01-24T09:47:21Z</time>
      </trkpt>
      <trkpt lat="43.81895" lon="6.9928">
        <ele>1610</ele>
        <time>2013-01-24T09:47:29Z</time>
      </trkpt>
      <trkpt lat="43.81896" lon="6.99291">
        <ele>1610.7</ele>
        <time>2013-01-24T09:47:36Z</time>
      </trkpt>
      <trkpt lat="43.81897" lon="6.99302">
        <ele>1610.8</ele>
        <time>2013-01-24T09:47:43Z</time>
      </trkpt>
      <trkpt lat="43.81889" lon="6.99304">
        <ele>1611.2</ele>
        <time>2013-01-24T09:56:25Z</time>
      </trkpt>
      <trkpt lat="43.81888" lon="6.99304">
        <ele>1611.2</ele>
        <time>2013-01-24T09:56:26Z</time>
      </trkpt>
      <trkpt lat="43.81872" lon="6.99313">
        <ele>1614</ele>
        <time>2013-01-24T09:56:57Z</time>
      </trkpt>
      <trkpt lat="43.81864" lon="6.99317">
        <ele>1615.8</ele>
        <time>2013-01-24T09:57:20Z</time>
      </trkpt>
      <trkpt lat="43.81855" lon="6.99321">
        <ele>1618.1</ele>
        <time>2013-01-24T09:57:34Z</time>
      </trkpt>
      <trkpt lat="43.81855" lon="6.99321">
        <ele>1618.5</ele>
        <time>2013-01-24T09:57:35Z</time>
      </trkpt>
      <trkpt lat="43.81839" lon="6.99328">
        <ele>1620.5</ele>
        <time>2013-01-24T09:57:59Z</time>
      </trkpt>
      <trkpt lat="43.81831" lon="6.9933">
        <ele>1621.5</ele>
        <time>2013-01-24T09:58:11Z</time>
      </trkpt>
      <trkpt lat="43.81822" lon="6.99334">
        <ele>1624.6</ele>
        <time>2013-01-24T09:58:24Z</time>
      </trkpt>
      <trkpt lat="43.81814" lon="6.99338">
        <ele>1624.5</ele>
        <time>2013-01-24T09:58:36Z</time>
      </trkpt>
      <trkpt lat="43.81814" lon="6.99338">
        <ele>1624.6</ele>
        <time>2013-01-24T09:58:37Z</time>
      </trkpt>
      <trkpt lat="43.81801" lon="6.99353">
        <ele>1625.8</ele>
        <time>2013-01-24T09:58:57Z</time>
      </trkpt>
      <trkpt lat="43.81794" lon="6.9936">
        <ele>1626.2</ele>
        <time>2013-01-24T09:59:07Z</time>
      </trkpt>
      <trkpt lat="43.81788" lon="6.99368">
        <ele>1626.6</ele>
        <time>2013-01-24T09:59:17Z</time>
      </trkpt>
      <trkpt lat="43.81781" lon="6.99374">
        <ele>1626.9</ele>
        <time>2013-01-24T09:59:27Z</time>
      </trkpt>
      <trkpt lat="43.81774" lon="6.99382">
        <ele>1626.9</ele>
        <time>2013-01-24T09:59:38Z</time>
      </trkpt>
      <trkpt lat="43.81774" lon="6.99382">
        <ele>1627</ele>
        <time>2013-01-24T09:59:39Z</time>
      </trkpt>
      <trkpt lat="43.8176" lon="6.99395">
        <ele>1629.4</ele>
        <time>2013-01-24T10:00:04Z</time>
      </trkpt>
      <trkpt lat="43.81752" lon="6.994">
        <ele>1629.6</ele>
        <time>2013-01-24T10:00:17Z</time>
      </trkpt>
      <trkpt lat="43.81745" lon="6.99406">
        <ele>1631.2</ele>
        <time>2013-01-24T10:00:32Z</time>
      </trkpt>
      <trkpt lat="43.81736" lon="6.99411">
        <ele>1633.7</ele>
        <time>2013-01-24T10:00:46Z</time>
      </trkpt>
      <trkpt lat="43.81736" lon="6.99411">
        <ele>1634.1</ele>
        <time>2013-01-24T10:00:47Z</time>
      </trkpt>
      <trkpt lat="43.8172" lon="6.99415">
        <ele>1637.5</ele>
        <time>2013-01-24T10:01:13Z</time>
      </trkpt>
      <trkpt lat="43.81711" lon="6.99415">
        <ele>1638.6</ele>
        <time>2013-01-24T10:01:25Z</time>
      </trkpt>
      <trkpt lat="43.81702" lon="6.99416">
        <ele>1639.1</ele>
        <time>2013-01-24T10:01:39Z</time>
      </trkpt>
      <trkpt lat="43.81694" lon="6.99416">
        <ele>1641.5</ele>
        <time>2013-01-24T10:01:53Z</time>
      </trkpt>
      <trkpt lat="43.81693" lon="6.99416">
        <ele>1641.5</ele>
        <time>2013-01-24T10:01:54Z</time>
      </trkpt>
      <trkpt lat="43.81676" lon="6.99417">
        <ele>1645.1</ele>
        <time>2013-01-24T10:02:20Z</time>
      </trkpt>
      <trkpt lat="43.81668" lon="6.99416">
        <ele>1647.5</ele>
        <time>2013-01-24T10:02:34Z</time>
      </trkpt>
      <trkpt lat="43.81659" lon="6.99416">
        <ele>1649.3</ele>
        <time>2013-01-24T10:02:49Z</time>
      </trkpt>
      <trkpt lat="43.81651" lon="6.99412">
        <ele>1650.3</ele>
        <time>2013-01-24T10:03:02Z</time>
      </trkpt>
      <trkpt lat="43.81651" lon="6.99412">
        <ele>1650.8</ele>
        <time>2013-01-24T10:03:03Z</time>
      </trkpt>
      <trkpt lat="43.81636" lon="6.994">
        <ele>1653.5</ele>
        <time>2013-01-24T10:03:28Z</time>
      </trkpt>
      <trkpt lat="43.81629" lon="6.99392">
        <ele>1655.7</ele>
        <time>2013-01-24T10:04:02Z</time>
      </trkpt>
      <trkpt lat="43.81624" lon="6.99382">
        <ele>1656.6</ele>
        <time>2013-01-24T10:04:18Z</time>
      </trkpt>
      <trkpt lat="43.81624" lon="6.99382">
        <ele>1656.6</ele>
        <time>2013-01-24T10:04:19Z</time>
      </trkpt>
      <trkpt lat="43.81619" lon="6.99359">
        <ele>1661.7</ele>
        <time>2013-01-24T10:04:51Z</time>
      </trkpt>
      <trkpt lat="43.81611" lon="6.99362">
        <ele>1664.1</ele>
        <time>2013-01-24T10:05:06Z</time>
      </trkpt>
      <trkpt lat="43.81603" lon="6.99368">
        <ele>1665.3</ele>
        <time>2013-01-24T10:05:22Z</time>
      </trkpt>
      <trkpt lat="43.81603" lon="6.99369">
        <ele>1665.3</ele>
        <time>2013-01-24T10:05:23Z</time>
      </trkpt>
      <trkpt lat="43.8159" lon="6.99361">
        <ele>1670</ele>
        <time>2013-01-24T10:05:55Z</time>
      </trkpt>
      <trkpt lat="43.81582" lon="6.99365">
        <ele>1671.6</ele>
        <time>2013-01-24T10:06:10Z</time>
      </trkpt>
      <trkpt lat="43.81574" lon="6.99372">
        <ele>1672.2</ele>
        <time>2013-01-24T10:06:25Z</time>
      </trkpt>
      <trkpt lat="43.81574" lon="6.99371">
        <ele>1671.9</ele>
        <time>2013-01-24T10:06:26Z</time>
      </trkpt>
      <trkpt lat="43.81561" lon="6.99359">
        <ele>1676.7</ele>
        <time>2013-01-24T10:06:59Z</time>
      </trkpt>
      <trkpt lat="43.81553" lon="6.99364">
        <ele>1679.4</ele>
        <time>2013-01-24T10:07:16Z</time>
      </trkpt>
      <trkpt lat="43.81546" lon="6.99371">
        <ele>1682.3</ele>
        <time>2013-01-24T10:07:32Z</time>
      </trkpt>
      <trkpt lat="43.81545" lon="6.99371">
        <ele>1682.6</ele>
        <time>2013-01-24T10:07:33Z</time>
      </trkpt>
      <trkpt lat="43.81534" lon="6.99354">
        <ele>1687.5</ele>
        <time>2013-01-24T10:08:17Z</time>
      </trkpt>
      <trkpt lat="43.81531" lon="6.99343">
        <ele>1690.8</ele>
        <time>2013-01-24T10:08:33Z</time>
      </trkpt>
      <trkpt lat="43.81531" lon="6.99342">
        <ele>1691</ele>
        <time>2013-01-24T10:08:34Z</time>
      </trkpt>
      <trkpt lat="43.81525" lon="6.9932">
        <ele>1694.6</ele>
        <time>2013-01-24T10:09:01Z</time>
      </trkpt>
      <trkpt lat="43.81519" lon="6.99311">
        <ele>1696.2</ele>
        <time>2013-01-24T10:09:14Z</time>
      </trkpt>
      <trkpt lat="43.81513" lon="6.99303">
        <ele>1698.2</ele>
        <time>2013-01-24T10:09:25Z</time>
      </trkpt>
      <trkpt lat="43.8151" lon="6.99292">
        <ele>1701.2</ele>
        <time>2013-01-24T10:11:05Z</time>
      </trkpt>
      <trkpt lat="43.8151" lon="6.99291">
        <ele>1701</ele>
        <time>2013-01-24T10:11:06Z</time>
      </trkpt>
      <trkpt lat="43.81518" lon="6.99271">
        <ele>1697.4</ele>
        <time>2013-01-24T10:11:20Z</time>
      </trkpt>
      <trkpt lat="43.81519" lon="6.99259">
        <ele>1694.3</ele>
        <time>2013-01-24T10:11:27Z</time>
      </trkpt>
      <trkpt lat="43.81521" lon="6.99247">
        <ele>1692.8</ele>
        <time>2013-01-24T10:11:34Z</time>
      </trkpt>
      <trkpt lat="43.81521" lon="6.99236">
        <ele>1690.1</ele>
        <time>2013-01-24T10:11:41Z</time>
      </trkpt>
      <trkpt lat="43.81523" lon="6.99226">
        <ele>1688.8</ele>
        <time>2013-01-24T10:11:46Z</time>
      </trkpt>
      <trkpt lat="43.81523" lon="6.99215">
        <ele>1686.6</ele>
        <time>2013-01-24T10:11:52Z</time>
      </trkpt>
      <trkpt lat="43.81523" lon="6.99202">
        <ele>1684.4</ele>
        <time>2013-01-24T10:11:58Z</time>
      </trkpt>
      <trkpt lat="43.81524" lon="6.99191">
        <ele>1682.1</ele>
        <time>2013-01-24T10:12:06Z</time>
      </trkpt>
      <trkpt lat="43.81524" lon="6.99189">
        <ele>1682</ele>
        <time>2013-01-24T10:12:07Z</time>
      </trkpt>
      <trkpt lat="43.81526" lon="6.99167">
        <ele>1679.3</ele>
        <time>2013-01-24T10:12:18Z</time>
      </trkpt>
      <trkpt lat="43.81526" lon="6.99157">
        <ele>1678.6</ele>
        <time>2013-01-24T10:12:22Z</time>
      </trkpt>
      <trkpt lat="43.81527" lon="6.99146">
        <ele>1676.8</ele>
        <time>2013-01-24T10:12:29Z</time>
      </trkpt>
      <trkpt lat="43.81527" lon="6.99134">
        <ele>1677.1</ele>
        <time>2013-01-24T10:12:39Z</time>
      </trkpt>
      <trkpt lat="43.81528" lon="6.99121">
        <ele>1677.3</ele>
        <time>2013-01-24T10:12:50Z</time>
      </trkpt>
      <trkpt lat="43.81529" lon="6.9911">
        <ele>1677.5</ele>
        <time>2013-01-24T10:13:00Z</time>
      </trkpt>
      <trkpt lat="43.8153" lon="6.99098">
        <ele>1679.7</ele>
        <time>2013-01-24T10:13:10Z</time>
      </trkpt>
      <trkpt lat="43.81531" lon="6.99097">
        <ele>1679.9</ele>
        <time>2013-01-24T10:13:11Z</time>
      </trkpt>
      <trkpt lat="43.81532" lon="6.99074">
        <ele>1679</ele>
        <time>2013-01-24T10:13:50Z</time>
      </trkpt>
      <trkpt lat="43.81532" lon="6.99062">
        <ele>1680.2</ele>
        <time>2013-01-24T10:15:14Z</time>
      </trkpt>
      <trkpt lat="43.81533" lon="6.9906">
        <ele>1680.7</ele>
        <time>2013-01-24T10:15:15Z</time>
      </trkpt>
      <trkpt lat="43.81536" lon="6.99038">
        <ele>1680.1</ele>
        <time>2013-01-24T10:15:32Z</time>
      </trkpt>
      <trkpt lat="43.81537" lon="6.99026">
        <ele>1680.4</ele>
        <time>2013-01-24T10:15:40Z</time>
      </trkpt>
      <trkpt lat="43.81537" lon="6.99015">
        <ele>1680</ele>
        <time>2013-01-24T10:15:48Z</time>
      </trkpt>
      <trkpt lat="43.81538" lon="6.99003">
        <ele>1680.2</ele>
        <time>2013-01-24T10:15:55Z</time>
      </trkpt>
      <trkpt lat="43.81538" lon="6.98993">
        <ele>1679</ele>
        <time>2013-01-24T10:16:02Z</time>
      </trkpt>
      <trkpt lat="43.8154" lon="6.98982">
        <ele>1678.2</ele>
        <time>2013-01-24T10:16:08Z</time>
      </trkpt>
      <trkpt lat="43.81543" lon="6.9897">
        <ele>1677.5</ele>
        <time>2013-01-24T10:16:16Z</time>
      </trkpt>
      <trkpt lat="43.81543" lon="6.98968">
        <ele>1677.6</ele>
        <time>2013-01-24T10:16:17Z</time>
      </trkpt>
      <trkpt lat="43.81546" lon="6.98947">
        <ele>1676.7</ele>
        <time>2013-01-24T10:16:31Z</time>
      </trkpt>
      <trkpt lat="43.81548" lon="6.98936">
        <ele>1678</ele>
        <time>2013-01-24T10:16:38Z</time>
      </trkpt>
      <trkpt lat="43.81551" lon="6.98926">
        <ele>1678</ele>
        <time>2013-01-24T10:16:44Z</time>
      </trkpt>
      <trkpt lat="43.81553" lon="6.98914">
        <ele>1676.9</ele>
        <time>2013-01-24T10:16:52Z</time>
      </trkpt>
      <trkpt lat="43.81555" lon="6.98902">
        <ele>1678</ele>
        <time>2013-01-24T10:17:34Z</time>
      </trkpt>
      <trkpt lat="43.81555" lon="6.98902">
        <ele>1677.8</ele>
        <time>2013-01-24T10:17:35Z</time>
      </trkpt>
      <trkpt lat="43.81557" lon="6.98879">
        <ele>1680.4</ele>
        <time>2013-01-24T10:18:00Z</time>
      </trkpt>
      <trkpt lat="43.81558" lon="6.98867">
        <ele>1682.1</ele>
        <time>2013-01-24T10:18:13Z</time>
      </trkpt>
      <trkpt lat="43.81562" lon="6.98857">
        <ele>1684.3</ele>
        <time>2013-01-24T10:18:27Z</time>
      </trkpt>
      <trkpt lat="43.81565" lon="6.98845">
        <ele>1686.3</ele>
        <time>2013-01-24T10:18:43Z</time>
      </trkpt>
      <trkpt lat="43.81565" lon="6.98844">
        <ele>1686.5</ele>
        <time>2013-01-24T10:18:44Z</time>
      </trkpt>
      <trkpt lat="43.81574" lon="6.98824">
        <ele>1691.5</ele>
        <time>2013-01-24T10:19:35Z</time>
      </trkpt>
      <trkpt lat="43.8158" lon="6.98816">
        <ele>1691.6</ele>
        <time>2013-01-24T10:19:49Z</time>
      </trkpt>
      <trkpt lat="43.8158" lon="6.98815">
        <ele>1691.6</ele>
        <time>2013-01-24T10:19:50Z</time>
      </trkpt>
      <trkpt lat="43.81583" lon="6.98796">
        <ele>1697.8</ele>
        <time>2013-01-24T10:20:34Z</time>
      </trkpt>
      <trkpt lat="43.81585" lon="6.98784">
        <ele>1702.1</ele>
        <time>2013-01-24T10:21:13Z</time>
      </trkpt>
      <trkpt lat="43.81586" lon="6.98784">
        <ele>1702</ele>
        <time>2013-01-24T10:21:14Z</time>
      </trkpt>
      <trkpt lat="43.816" lon="6.98773">
        <ele>1705.9</ele>
        <time>2013-01-24T10:21:44Z</time>
      </trkpt>
      <trkpt lat="43.81608" lon="6.98768">
        <ele>1708.8</ele>
        <time>2013-01-24T10:21:57Z</time>
      </trkpt>
      <trkpt lat="43.81603" lon="6.98758">
        <ele>1711.6</ele>
        <time>2013-01-24T10:22:42Z</time>
      </trkpt>
      <trkpt lat="43.81603" lon="6.98758">
        <ele>1711.7</ele>
        <time>2013-01-24T10:22:43Z</time>
      </trkpt>
      <trkpt lat="43.81602" lon="6.98741">
        <ele>1716.8</ele>
        <time>2013-01-24T10:23:23Z</time>
      </trkpt>
      <trkpt lat="43.81609" lon="6.98735">
        <ele>1719.4</ele>
        <time>2013-01-24T10:23:37Z</time>
      </trkpt>
      <trkpt lat="43.81616" lon="6.98728">
        <ele>1721.5</ele>
        <time>2013-01-24T10:23:51Z</time>
      </trkpt>
      <trkpt lat="43.81616" lon="6.98727">
        <ele>1721.6</ele>
        <time>2013-01-24T10:23:52Z</time>
      </trkpt>
      <trkpt lat="43.81624" lon="6.98721">
        <ele>1722.5</ele>
        <time>2013-01-24T10:25:05Z</time>
      </trkpt>
      <trkpt lat="43.81638" lon="6.98708">
        <ele>1727.6</ele>
        <time>2013-01-24T10:25:29Z</time>
      </trkpt>
      <trkpt lat="43.81642" lon="6.98697">
        <ele>1729.5</ele>
        <time>2013-01-24T10:25:43Z</time>
      </trkpt>
      <trkpt lat="43.81645" lon="6.98685">
        <ele>1731.6</ele>
        <time>2013-01-24T10:26:05Z</time>
      </trkpt>
      <trkpt lat="43.81645" lon="6.98684">
        <ele>1731.8</ele>
        <time>2013-01-24T10:26:06Z</time>
      </trkpt>
      <trkpt lat="43.81656" lon="6.98667">
        <ele>1733.3</ele>
        <time>2013-01-24T10:26:26Z</time>
      </trkpt>
      <trkpt lat="43.81648" lon="6.98661">
        <ele>1736.8</ele>
        <time>2013-01-24T10:26:55Z</time>
      </trkpt>
      <trkpt lat="43.8165" lon="6.9865">
        <ele>1739.4</ele>
        <time>2013-01-24T10:27:16Z</time>
      </trkpt>
      <trkpt lat="43.81651" lon="6.98649">
        <ele>1739.7</ele>
        <time>2013-01-24T10:27:17Z</time>
      </trkpt>
      <trkpt lat="43.81661" lon="6.98632">
        <ele>1740.8</ele>
        <time>2013-01-24T10:27:45Z</time>
      </trkpt>
      <trkpt lat="43.81668" lon="6.98624">
        <ele>1742.2</ele>
        <time>2013-01-24T10:27:57Z</time>
      </trkpt>
      <trkpt lat="43.81675" lon="6.98617">
        <ele>1744.5</ele>
        <time>2013-01-24T10:28:37Z</time>
      </trkpt>
      <trkpt lat="43.81675" lon="6.98616">
        <ele>1744.7</ele>
        <time>2013-01-24T10:28:38Z</time>
      </trkpt>
      <trkpt lat="43.81676" lon="6.98599">
        <ele>1748.6</ele>
        <time>2013-01-24T10:29:12Z</time>
      </trkpt>
      <trkpt lat="43.81667" lon="6.98596">
        <ele>1751.8</ele>
        <time>2013-01-24T10:29:27Z</time>
      </trkpt>
      <trkpt lat="43.81659" lon="6.98597">
        <ele>1752.8</ele>
        <time>2013-01-24T10:29:41Z</time>
      </trkpt>
      <trkpt lat="43.81658" lon="6.98597">
        <ele>1752.9</ele>
        <time>2013-01-24T10:29:42Z</time>
      </trkpt>
      <trkpt lat="43.81653" lon="6.98584">
        <ele>1757.4</ele>
        <time>2013-01-24T10:31:57Z</time>
      </trkpt>
      <trkpt lat="43.81653" lon="6.98584">
        <ele>1757.5</ele>
        <time>2013-01-24T10:31:58Z</time>
      </trkpt>
      <trkpt lat="43.81666" lon="6.98568">
        <ele>1761.9</ele>
        <time>2013-01-24T10:32:42Z</time>
      </trkpt>
      <trkpt lat="43.81671" lon="6.98559">
        <ele>1764.1</ele>
        <time>2013-01-24T10:33:07Z</time>
      </trkpt>
      <trkpt lat="43.81671" lon="6.98558">
        <ele>1764.1</ele>
        <time>2013-01-24T10:33:08Z</time>
      </trkpt>
      <trkpt lat="43.81662" lon="6.9854">
        <ele>1768.8</ele>
        <time>2013-01-24T10:33:44Z</time>
      </trkpt>
      <trkpt lat="43.81666" lon="6.9853">
        <ele>1773.1</ele>
        <time>2013-01-24T10:34:02Z</time>
      </trkpt>
      <trkpt lat="43.81672" lon="6.98521">
        <ele>1776</ele>
        <time>2013-01-24T10:35:17Z</time>
      </trkpt>
      <trkpt lat="43.81672" lon="6.98521">
        <ele>1776.1</ele>
        <time>2013-01-24T10:35:18Z</time>
      </trkpt>
      <trkpt lat="43.81674" lon="6.98504">
        <ele>1779.6</ele>
        <time>2013-01-24T10:35:42Z</time>
      </trkpt>
      <trkpt lat="43.81666" lon="6.98497">
        <ele>1779.7</ele>
        <time>2013-01-24T10:35:55Z</time>
      </trkpt>
      <trkpt lat="43.81658" lon="6.98497">
        <ele>1780.8</ele>
        <time>2013-01-24T10:36:07Z</time>
      </trkpt>
      <trkpt lat="43.81651" lon="6.98504">
        <ele>1781.2</ele>
        <time>2013-01-24T10:37:15Z</time>
      </trkpt>
      <trkpt lat="43.81651" lon="6.98505">
        <ele>1781.1</ele>
        <time>2013-01-24T10:37:16Z</time>
      </trkpt>
      <trkpt lat="43.81657" lon="6.98495">
        <ele>1779.8</ele>
        <time>2013-01-24T10:47:10Z</time>
      </trkpt>
      <trkpt lat="43.81666" lon="6.98494">
        <ele>1781.9</ele>
        <time>2013-01-24T10:50:18Z</time>
      </trkpt>
      <trkpt lat="43.81681" lon="6.98491">
        <ele>1779.3</ele>
        <time>2013-01-24T10:50:31Z</time>
      </trkpt>
      <trkpt lat="43.81686" lon="6.98482">
        <ele>1778</ele>
        <time>2013-01-24T10:51:21Z</time>
      </trkpt>
      <trkpt lat="43.81686" lon="6.98481">
        <ele>1778.3</ele>
        <time>2013-01-24T10:51:22Z</time>
      </trkpt>
      <trkpt lat="43.81694" lon="6.98479">
        <ele>1774.8</ele>
        <time>2013-01-24T10:52:50Z</time>
      </trkpt>
      <trkpt lat="43.8171" lon="6.98475">
        <ele>1767.3</ele>
        <time>2013-01-24T10:53:19Z</time>
      </trkpt>
      <trkpt lat="43.81719" lon="6.98473">
        <ele>1765.1</ele>
        <time>2013-01-24T10:53:29Z</time>
      </trkpt>
      <trkpt lat="43.81727" lon="6.98472">
        <ele>1759.3</ele>
        <time>2013-01-24T10:53:41Z</time>
      </trkpt>
      <trkpt lat="43.81735" lon="6.98468">
        <ele>1758.7</ele>
        <time>2013-01-24T10:53:50Z</time>
      </trkpt>
      <trkpt lat="43.81736" lon="6.98458">
        <ele>1756.3</ele>
        <time>2013-01-24T10:53:53Z</time>
      </trkpt>
      <trkpt lat="43.81738" lon="6.98455">
        <ele>1755.5</ele>
        <time>2013-01-24T10:53:54Z</time>
      </trkpt>
      <trkpt lat="43.8175" lon="6.9847">
        <ele>1751.9</ele>
        <time>2013-01-24T10:54:06Z</time>
      </trkpt>
      <trkpt lat="43.81756" lon="6.98466">
        <ele>1748.1</ele>
        <time>2013-01-24T10:54:11Z</time>
      </trkpt>
      <trkpt lat="43.81763" lon="6.98467">
        <ele>1744.8</ele>
        <time>2013-01-24T10:54:14Z</time>
      </trkpt>
      <trkpt lat="43.8177" lon="6.98475">
        <ele>1742.3</ele>
        <time>2013-01-24T10:54:17Z</time>
      </trkpt>
      <trkpt lat="43.81775" lon="6.98484">
        <ele>1738.8</ele>
        <time>2013-01-24T10:54:20Z</time>
      </trkpt>
      <trkpt lat="43.81781" lon="6.98477">
        <ele>1738.2</ele>
        <time>2013-01-24T10:54:24Z</time>
      </trkpt>
      <trkpt lat="43.81783" lon="6.98466">
        <ele>1736.1</ele>
        <time>2013-01-24T10:54:27Z</time>
      </trkpt>
      <trkpt lat="43.81783" lon="6.98455">
        <ele>1734.5</ele>
        <time>2013-01-24T10:54:30Z</time>
      </trkpt>
      <trkpt lat="43.81791" lon="6.98458">
        <ele>1729.6</ele>
        <time>2013-01-24T10:54:41Z</time>
      </trkpt>
      <trkpt lat="43.81796" lon="6.98467">
        <ele>1728.7</ele>
        <time>2013-01-24T10:54:49Z</time>
      </trkpt>
      <trkpt lat="43.81801" lon="6.98475">
        <ele>1728.2</ele>
        <time>2013-01-24T10:54:53Z</time>
      </trkpt>
      <trkpt lat="43.81809" lon="6.98477">
        <ele>1725.6</ele>
        <time>2013-01-24T10:55:02Z</time>
      </trkpt>
      <trkpt lat="43.81811" lon="6.98478">
        <ele>1725.2</ele>
        <time>2013-01-24T10:55:03Z</time>
      </trkpt>
      <trkpt lat="43.81817" lon="6.98495">
        <ele>1721.2</ele>
        <time>2013-01-24T10:55:10Z</time>
      </trkpt>
      <trkpt lat="43.81826" lon="6.98498">
        <ele>1718.2</ele>
        <time>2013-01-24T10:55:16Z</time>
      </trkpt>
      <trkpt lat="43.81829" lon="6.98486">
        <ele>1714.5</ele>
        <time>2013-01-24T10:55:21Z</time>
      </trkpt>
      <trkpt lat="43.81831" lon="6.98476">
        <ele>1712.2</ele>
        <time>2013-01-24T10:55:24Z</time>
      </trkpt>
      <trkpt lat="43.8183" lon="6.98466">
        <ele>1710.5</ele>
        <time>2013-01-24T10:55:27Z</time>
      </trkpt>
      <trkpt lat="43.81838" lon="6.98464">
        <ele>1706.6</ele>
        <time>2013-01-24T10:55:32Z</time>
      </trkpt>
      <trkpt lat="43.81846" lon="6.98462">
        <ele>1703.1</ele>
        <time>2013-01-24T10:55:36Z</time>
      </trkpt>
      <trkpt lat="43.8185" lon="6.98468">
        <ele>1700.4</ele>
        <time>2013-01-24T10:55:38Z</time>
      </trkpt>
      <trkpt lat="43.81854" lon="6.98475">
        <ele>1697.9</ele>
        <time>2013-01-24T10:55:40Z</time>
      </trkpt>
      <trkpt lat="43.81859" lon="6.98467">
        <ele>1693.1</ele>
        <time>2013-01-24T10:55:44Z</time>
      </trkpt>
      <trkpt lat="43.81866" lon="6.98466">
        <ele>1688.9</ele>
        <time>2013-01-24T10:55:50Z</time>
      </trkpt>
      <trkpt lat="43.81873" lon="6.98462">
        <ele>1686.8</ele>
        <time>2013-01-24T10:55:53Z</time>
      </trkpt>
      <trkpt lat="43.8188" lon="6.98461">
        <ele>1685.2</ele>
        <time>2013-01-24T10:55:55Z</time>
      </trkpt>
      <trkpt lat="43.81885" lon="6.98467">
        <ele>1683.1</ele>
        <time>2013-01-24T10:55:57Z</time>
      </trkpt>
      <trkpt lat="43.81892" lon="6.98467">
        <ele>1681.4</ele>
        <time>2013-01-24T10:55:59Z</time>
      </trkpt>
      <trkpt lat="43.819" lon="6.98463">
        <ele>1678.4</ele>
        <time>2013-01-24T10:56:02Z</time>
      </trkpt>
      <trkpt lat="43.81903" lon="6.98466">
        <ele>1677.1</ele>
        <time>2013-01-24T10:56:03Z</time>
      </trkpt>
      <trkpt lat="43.81912" lon="6.98472">
        <ele>1674.6</ele>
        <time>2013-01-24T10:56:06Z</time>
      </trkpt>
      <trkpt lat="43.81917" lon="6.98466">
        <ele>1673.5</ele>
        <time>2013-01-24T10:56:08Z</time>
      </trkpt>
      <trkpt lat="43.81924" lon="6.98463">
        <ele>1671.7</ele>
        <time>2013-01-24T10:56:10Z</time>
      </trkpt>
      <trkpt lat="43.81932" lon="6.98465">
        <ele>1669.9</ele>
        <time>2013-01-24T10:56:12Z</time>
      </trkpt>
      <trkpt lat="43.81936" lon="6.98457">
        <ele>1668.4</ele>
        <time>2013-01-24T10:56:14Z</time>
      </trkpt>
      <trkpt lat="43.81942" lon="6.98451">
        <ele>1665.7</ele>
        <time>2013-01-24T10:56:16Z</time>
      </trkpt>
      <trkpt lat="43.81949" lon="6.98455">
        <ele>1663.7</ele>
        <time>2013-01-24T10:56:18Z</time>
      </trkpt>
      <trkpt lat="43.81957" lon="6.98453">
        <ele>1661.8</ele>
        <time>2013-01-24T10:56:21Z</time>
      </trkpt>
      <trkpt lat="43.81962" lon="6.98449">
        <ele>1658.9</ele>
        <time>2013-01-24T10:56:23Z</time>
      </trkpt>
      <trkpt lat="43.81969" lon="6.98449">
        <ele>1656.3</ele>
        <time>2013-01-24T10:56:25Z</time>
      </trkpt>
      <trkpt lat="43.81976" lon="6.98443">
        <ele>1651.5</ele>
        <time>2013-01-24T10:56:29Z</time>
      </trkpt>
      <trkpt lat="43.81983" lon="6.9844">
        <ele>1644.4</ele>
        <time>2013-01-24T10:56:42Z</time>
      </trkpt>
      <trkpt lat="43.8199" lon="6.98447">
        <ele>1643.9</ele>
        <time>2013-01-24T10:56:47Z</time>
      </trkpt>
      <trkpt lat="43.81997" lon="6.98454">
        <ele>1642.6</ele>
        <time>2013-01-24T10:56:50Z</time>
      </trkpt>
      <trkpt lat="43.82002" lon="6.98459">
        <ele>1641.4</ele>
        <time>2013-01-24T10:56:52Z</time>
      </trkpt>
      <trkpt lat="43.82009" lon="6.98467">
        <ele>1641.4</ele>
        <time>2013-01-24T10:56:55Z</time>
      </trkpt>
      <trkpt lat="43.82014" lon="6.98472">
        <ele>1641</ele>
        <time>2013-01-24T10:56:57Z</time>
      </trkpt>
      <trkpt lat="43.82022" lon="6.98478">
        <ele>1640.8</ele>
        <time>2013-01-24T10:56:59Z</time>
      </trkpt>
      <trkpt lat="43.82027" lon="6.98481">
        <ele>1640</ele>
        <time>2013-01-24T10:57:00Z</time>
      </trkpt>
      <trkpt lat="43.82032" lon="6.98484">
        <ele>1639.4</ele>
        <time>2013-01-24T10:57:01Z</time>
      </trkpt>
      <trkpt lat="43.82038" lon="6.98487">
        <ele>1638.9</ele>
        <time>2013-01-24T10:57:02Z</time>
      </trkpt>
      <trkpt lat="43.82043" lon="6.9849">
        <ele>1637.9</ele>
        <time>2013-01-24T10:57:03Z</time>
      </trkpt>
      <trkpt lat="43.82048" lon="6.98492">
        <ele>1637.2</ele>
        <time>2013-01-24T10:57:04Z</time>
      </trkpt>
      <trkpt lat="43.82053" lon="6.98494">
        <ele>1636.6</ele>
        <time>2013-01-24T10:57:05Z</time>
      </trkpt>
      <trkpt lat="43.82058" lon="6.98495">
        <ele>1634.7</ele>
        <time>2013-01-24T10:57:06Z</time>
      </trkpt>
      <trkpt lat="43.82063" lon="6.98497">
        <ele>1633.3</ele>
        <time>2013-01-24T10:57:07Z</time>
      </trkpt>
      <trkpt lat="43.82067" lon="6.98498">
        <ele>1632.2</ele>
        <time>2013-01-24T10:57:08Z</time>
      </trkpt>
      <trkpt lat="43.82071" lon="6.98499">
        <ele>1631.6</ele>
        <time>2013-01-24T10:57:09Z</time>
      </trkpt>
      <trkpt lat="43.82076" lon="6.985">
        <ele>1631.1</ele>
        <time>2013-01-24T10:57:10Z</time>
      </trkpt>
      <trkpt lat="43.82081" lon="6.98502">
        <ele>1630.7</ele>
        <time>2013-01-24T10:57:11Z</time>
      </trkpt>
      <trkpt lat="43.82089" lon="6.98505">
        <ele>1629.5</ele>
        <time>2013-01-24T10:57:13Z</time>
      </trkpt>
      <trkpt lat="43.82097" lon="6.98504">
        <ele>1627.9</ele>
        <time>2013-01-24T10:57:15Z</time>
      </trkpt>
      <trkpt lat="43.82105" lon="6.98504">
        <ele>1626.2</ele>
        <time>2013-01-24T10:57:17Z</time>
      </trkpt>
      <trkpt lat="43.82114" lon="6.985">
        <ele>1624.9</ele>
        <time>2013-01-24T10:57:19Z</time>
      </trkpt>
      <trkpt lat="43.82121" lon="6.98502">
        <ele>1623.7</ele>
        <time>2013-01-24T10:57:21Z</time>
      </trkpt>
      <trkpt lat="43.82128" lon="6.98503">
        <ele>1623</ele>
        <time>2013-01-24T10:57:23Z</time>
      </trkpt>
      <trkpt lat="43.82135" lon="6.98503">
        <ele>1621.7</ele>
        <time>2013-01-24T10:57:25Z</time>
      </trkpt>
      <trkpt lat="43.82142" lon="6.98508">
        <ele>1619.3</ele>
        <time>2013-01-24T10:57:28Z</time>
      </trkpt>
      <trkpt lat="43.82149" lon="6.98511">
        <ele>1618</ele>
        <time>2013-01-24T10:57:30Z</time>
      </trkpt>
      <trkpt lat="43.82155" lon="6.98518">
        <ele>1616.8</ele>
        <time>2013-01-24T10:57:32Z</time>
      </trkpt>
      <trkpt lat="43.8216" lon="6.98526">
        <ele>1616.2</ele>
        <time>2013-01-24T10:57:34Z</time>
      </trkpt>
      <trkpt lat="43.82165" lon="6.98533">
        <ele>1614.2</ele>
        <time>2013-01-24T10:57:36Z</time>
      </trkpt>
      <trkpt lat="43.8217" lon="6.9854">
        <ele>1612.8</ele>
        <time>2013-01-24T10:57:38Z</time>
      </trkpt>
      <trkpt lat="43.82177" lon="6.98546">
        <ele>1610.2</ele>
        <time>2013-01-24T10:57:42Z</time>
      </trkpt>
      <trkpt lat="43.82181" lon="6.98536">
        <ele>1608.1</ele>
        <time>2013-01-24T10:57:51Z</time>
      </trkpt>
      <trkpt lat="43.82187" lon="6.98529">
        <ele>1607.7</ele>
        <time>2013-01-24T10:57:54Z</time>
      </trkpt>
      <trkpt lat="43.82194" lon="6.98525">
        <ele>1607</ele>
        <time>2013-01-24T10:57:58Z</time>
      </trkpt>
      <trkpt lat="43.82201" lon="6.98523">
        <ele>1604.7</ele>
        <time>2013-01-24T10:58:01Z</time>
      </trkpt>
      <trkpt lat="43.82208" lon="6.98524">
        <ele>1603.8</ele>
        <time>2013-01-24T10:58:04Z</time>
      </trkpt>
      <trkpt lat="43.82217" lon="6.98521">
        <ele>1599.2</ele>
        <time>2013-01-24T10:58:32Z</time>
      </trkpt>
      <trkpt lat="43.82217" lon="6.98521">
        <ele>1599.1</ele>
        <time>2013-01-24T10:58:33Z</time>
      </trkpt>
      <trkpt lat="43.82232" lon="6.98512">
        <ele>1595.6</ele>
        <time>2013-01-24T10:59:03Z</time>
      </trkpt>
      <trkpt lat="43.8224" lon="6.98509">
        <ele>1594.8</ele>
        <time>2013-01-24T10:59:06Z</time>
      </trkpt>
      <trkpt lat="43.82247" lon="6.98506">
        <ele>1594.3</ele>
        <time>2013-01-24T10:59:08Z</time>
      </trkpt>
      <trkpt lat="43.82256" lon="6.98503">
        <ele>1590.3</ele>
        <time>2013-01-24T10:59:17Z</time>
      </trkpt>
      <trkpt lat="43.8226" lon="6.98495">
        <ele>1591</ele>
        <time>2013-01-24T10:59:25Z</time>
      </trkpt>
      <trkpt lat="43.82268" lon="6.98493">
        <ele>1587.9</ele>
        <time>2013-01-24T10:59:40Z</time>
      </trkpt>
      <trkpt lat="43.82269" lon="6.98495">
        <ele>1587.9</ele>
        <time>2013-01-24T10:59:41Z</time>
      </trkpt>
      <trkpt lat="43.82282" lon="6.98505">
        <ele>1584.7</ele>
        <time>2013-01-24T10:59:47Z</time>
      </trkpt>
      <trkpt lat="43.8229" lon="6.98503">
        <ele>1582.5</ele>
        <time>2013-01-24T10:59:50Z</time>
      </trkpt>
      <trkpt lat="43.82297" lon="6.98508">
        <ele>1579.8</ele>
        <time>2013-01-24T10:59:53Z</time>
      </trkpt>
      <trkpt lat="43.82303" lon="6.98501">
        <ele>1577.7</ele>
        <time>2013-01-24T10:59:56Z</time>
      </trkpt>
      <trkpt lat="43.8231" lon="6.98504">
        <ele>1574.9</ele>
        <time>2013-01-24T10:59:59Z</time>
      </trkpt>
      <trkpt lat="43.82315" lon="6.98498">
        <ele>1574.2</ele>
        <time>2013-01-24T11:00:01Z</time>
      </trkpt>
      <trkpt lat="43.82321" lon="6.98489">
        <ele>1569.7</ele>
        <time>2013-01-24T11:00:05Z</time>
      </trkpt>
      <trkpt lat="43.82325" lon="6.98483">
        <ele>1566.5</ele>
        <time>2013-01-24T11:00:07Z</time>
      </trkpt>
      <trkpt lat="43.82332" lon="6.98484">
        <ele>1564.2</ele>
        <time>2013-01-24T11:00:09Z</time>
      </trkpt>
      <trkpt lat="43.8234" lon="6.98482">
        <ele>1561.6</ele>
        <time>2013-01-24T11:00:11Z</time>
      </trkpt>
      <trkpt lat="43.82345" lon="6.98477">
        <ele>1559.6</ele>
        <time>2013-01-24T11:00:13Z</time>
      </trkpt>
      <trkpt lat="43.82352" lon="6.98474">
        <ele>1558</ele>
        <time>2013-01-24T11:00:15Z</time>
      </trkpt>
      <trkpt lat="43.82355" lon="6.98463">
        <ele>1555.4</ele>
        <time>2013-01-24T11:00:18Z</time>
      </trkpt>
      <trkpt lat="43.8236" lon="6.98453">
        <ele>1553.5</ele>
        <time>2013-01-24T11:00:22Z</time>
      </trkpt>
      <trkpt lat="43.82364" lon="6.98447">
        <ele>1552.7</ele>
        <time>2013-01-24T11:00:24Z</time>
      </trkpt>
      <trkpt lat="43.82369" lon="6.98438">
        <ele>1551.2</ele>
        <time>2013-01-24T11:00:26Z</time>
      </trkpt>
      <trkpt lat="43.82373" lon="6.98429">
        <ele>1549.5</ele>
        <time>2013-01-24T11:00:28Z</time>
      </trkpt>
      <trkpt lat="43.82379" lon="6.98422">
        <ele>1545.3</ele>
        <time>2013-01-24T11:00:45Z</time>
      </trkpt>
      <trkpt lat="43.8238" lon="6.98421">
        <ele>1545.4</ele>
        <time>2013-01-24T11:00:46Z</time>
      </trkpt>
      <trkpt lat="43.82389" lon="6.98404">
        <ele>1543.8</ele>
        <time>2013-01-24T11:00:58Z</time>
      </trkpt>
      <trkpt lat="43.82393" lon="6.98395">
        <ele>1543.4</ele>
        <time>2013-01-24T11:01:01Z</time>
      </trkpt>
      <trkpt lat="43.82397" lon="6.98384">
        <ele>1543.2</ele>
        <time>2013-01-24T11:01:28Z</time>
      </trkpt>
      <trkpt lat="43.824" lon="6.98373">
        <ele>1541.8</ele>
        <time>2013-01-24T11:01:44Z</time>
      </trkpt>
      <trkpt lat="43.82401" lon="6.98361">
        <ele>1541.3</ele>
        <time>2013-01-24T11:01:55Z</time>
      </trkpt>
      <trkpt lat="43.82402" lon="6.9836">
        <ele>1541.2</ele>
        <time>2013-01-24T11:01:56Z</time>
      </trkpt>
      <trkpt lat="43.82404" lon="6.98341">
        <ele>1539.8</ele>
        <time>2013-01-24T11:02:03Z</time>
      </trkpt>
      <trkpt lat="43.82405" lon="6.9833">
        <ele>1540.2</ele>
        <time>2013-01-24T11:02:06Z</time>
      </trkpt>
      <trkpt lat="43.82407" lon="6.98318">
        <ele>1539.9</ele>
        <time>2013-01-24T11:02:09Z</time>
      </trkpt>
      <trkpt lat="43.82407" lon="6.98307">
        <ele>1539.7</ele>
        <time>2013-01-24T11:02:11Z</time>
      </trkpt>
      <trkpt lat="43.82408" lon="6.98296">
        <ele>1539.6</ele>
        <time>2013-01-24T11:02:13Z</time>
      </trkpt>
      <trkpt lat="43.82409" lon="6.98284">
        <ele>1538.2</ele>
        <time>2013-01-24T11:02:15Z</time>
      </trkpt>
      <trkpt lat="43.8241" lon="6.98273">
        <ele>1537.5</ele>
        <time>2013-01-24T11:02:17Z</time>
      </trkpt>
      <trkpt lat="43.82411" lon="6.98261">
        <ele>1537.1</ele>
        <time>2013-01-24T11:02:19Z</time>
      </trkpt>
      <trkpt lat="43.82412" lon="6.98255">
        <ele>1536.5</ele>
        <time>2013-01-24T11:02:20Z</time>
      </trkpt>
      <trkpt lat="43.82413" lon="6.98249">
        <ele>1535.9</ele>
        <time>2013-01-24T11:02:21Z</time>
      </trkpt>
      <trkpt lat="43.82415" lon="6.98243">
        <ele>1535.6</ele>
        <time>2013-01-24T11:02:22Z</time>
      </trkpt>
      <trkpt lat="43.82417" lon="6.98235">
        <ele>1535.1</ele>
        <time>2013-01-24T11:02:23Z</time>
      </trkpt>
      <trkpt lat="43.82418" lon="6.98228">
        <ele>1534.7</ele>
        <time>2013-01-24T11:02:24Z</time>
      </trkpt>
      <trkpt lat="43.82421" lon="6.98223">
        <ele>1534.5</ele>
        <time>2013-01-24T11:02:25Z</time>
      </trkpt>
      <trkpt lat="43.82424" lon="6.98218">
        <ele>1534.3</ele>
        <time>2013-01-24T11:02:26Z</time>
      </trkpt>
      <trkpt lat="43.82427" lon="6.98212">
        <ele>1533.1</ele>
        <time>2013-01-24T11:02:27Z</time>
      </trkpt>
      <trkpt lat="43.8243" lon="6.98207">
        <ele>1532.3</ele>
        <time>2013-01-24T11:02:28Z</time>
      </trkpt>
      <trkpt lat="43.82432" lon="6.98202">
        <ele>1531.7</ele>
        <time>2013-01-24T11:02:29Z</time>
      </trkpt>
      <trkpt lat="43.82437" lon="6.98192">
        <ele>1531.3</ele>
        <time>2013-01-24T11:02:31Z</time>
      </trkpt>
      <trkpt lat="43.82441" lon="6.98182">
        <ele>1530.6</ele>
        <time>2013-01-24T11:02:33Z</time>
      </trkpt>
      <trkpt lat="43.82443" lon="6.98177">
        <ele>1530.1</ele>
        <time>2013-01-24T11:02:34Z</time>
      </trkpt>
      <trkpt lat="43.82445" lon="6.9817">
        <ele>1529.7</ele>
        <time>2013-01-24T11:02:35Z</time>
      </trkpt>
      <trkpt lat="43.82447" lon="6.98162">
        <ele>1529.3</ele>
        <time>2013-01-24T11:02:36Z</time>
      </trkpt>
      <trkpt lat="43.82449" lon="6.98153">
        <ele>1529</ele>
        <time>2013-01-24T11:02:37Z</time>
      </trkpt>
      <trkpt lat="43.82451" lon="6.98144">
        <ele>1528.8</ele>
        <time>2013-01-24T11:02:38Z</time>
      </trkpt>
      <trkpt lat="43.82455" lon="6.98134">
        <ele>1527.7</ele>
        <time>2013-01-24T11:02:39Z</time>
      </trkpt>
      <trkpt lat="43.8246" lon="6.98125">
        <ele>1526.9</ele>
        <time>2013-01-24T11:02:40Z</time>
      </trkpt>
      <trkpt lat="43.82465" lon="6.98119">
        <ele>1526.3</ele>
        <time>2013-01-24T11:02:41Z</time>
      </trkpt>
      <trkpt lat="43.82471" lon="6.98113">
        <ele>1525.4</ele>
        <time>2013-01-24T11:02:42Z</time>
      </trkpt>
      <trkpt lat="43.82477" lon="6.98107">
        <ele>1524.7</ele>
        <time>2013-01-24T11:02:43Z</time>
      </trkpt>
      <trkpt lat="43.82483" lon="6.981">
        <ele>1524.2</ele>
        <time>2013-01-24T11:02:44Z</time>
      </trkpt>
      <trkpt lat="43.82489" lon="6.98092">
        <ele>1523.8</ele>
        <time>2013-01-24T11:02:45Z</time>
      </trkpt>
      <trkpt lat="43.82494" lon="6.98083">
        <ele>1522.5</ele>
        <time>2013-01-24T11:02:46Z</time>
      </trkpt>
      <trkpt lat="43.82497" lon="6.98074">
        <ele>1521.5</ele>
        <time>2013-01-24T11:02:47Z</time>
      </trkpt>
      <trkpt lat="43.825" lon="6.98065">
        <ele>1520.7</ele>
        <time>2013-01-24T11:02:48Z</time>
      </trkpt>
      <trkpt lat="43.82502" lon="6.98056">
        <ele>1520.1</ele>
        <time>2013-01-24T11:02:49Z</time>
      </trkpt>
      <trkpt lat="43.82505" lon="6.98049">
        <ele>1519.7</ele>
        <time>2013-01-24T11:02:50Z</time>
      </trkpt>
      <trkpt lat="43.82508" lon="6.98044">
        <ele>1519.3</ele>
        <time>2013-01-24T11:02:51Z</time>
      </trkpt>
      <trkpt lat="43.82512" lon="6.98039">
        <ele>1518.7</ele>
        <time>2013-01-24T11:02:52Z</time>
      </trkpt>
      <trkpt lat="43.82515" lon="6.98036">
        <ele>1518.2</ele>
        <time>2013-01-24T11:02:53Z</time>
      </trkpt>
      <trkpt lat="43.82523" lon="6.98029">
        <ele>1516.7</ele>
        <time>2013-01-24T11:02:55Z</time>
      </trkpt>
      <trkpt lat="43.8253" lon="6.98023">
        <ele>1515.2</ele>
        <time>2013-01-24T11:02:57Z</time>
      </trkpt>
      <trkpt lat="43.82533" lon="6.9802">
        <ele>1515.4</ele>
        <time>2013-01-24T11:02:58Z</time>
      </trkpt>
      <trkpt lat="43.82541" lon="6.98013">
        <ele>1515.3</ele>
        <time>2013-01-24T11:03:01Z</time>
      </trkpt>
      <trkpt lat="43.82547" lon="6.98009">
        <ele>1515</ele>
        <time>2013-01-24T11:03:03Z</time>
      </trkpt>
      <trkpt lat="43.82554" lon="6.98002">
        <ele>1514.5</ele>
        <time>2013-01-24T11:03:06Z</time>
      </trkpt>
      <trkpt lat="43.82559" lon="6.97996">
        <ele>1514.1</ele>
        <time>2013-01-24T11:03:08Z</time>
      </trkpt>
      <trkpt lat="43.82563" lon="6.97989">
        <ele>1513.7</ele>
        <time>2013-01-24T11:03:10Z</time>
      </trkpt>
      <trkpt lat="43.82567" lon="6.97979">
        <ele>1514.6</ele>
        <time>2013-01-24T11:03:13Z</time>
      </trkpt>
      <trkpt lat="43.82569" lon="6.97968">
        <ele>1514.2</ele>
        <time>2013-01-24T11:03:16Z</time>
      </trkpt>
      <trkpt lat="43.82572" lon="6.97957">
        <ele>1513.9</ele>
        <time>2013-01-24T11:03:19Z</time>
      </trkpt>
      <trkpt lat="43.82575" lon="6.97946">
        <ele>1513.9</ele>
        <time>2013-01-24T11:03:22Z</time>
      </trkpt>
      <trkpt lat="43.8258" lon="6.97935">
        <ele>1513.8</ele>
        <time>2013-01-24T11:03:25Z</time>
      </trkpt>
      <trkpt lat="43.82584" lon="6.97927">
        <ele>1513.7</ele>
        <time>2013-01-24T11:03:27Z</time>
      </trkpt>
      <trkpt lat="43.8259" lon="6.97923">
        <ele>1513.6</ele>
        <time>2013-01-24T11:03:29Z</time>
      </trkpt>
      <trkpt lat="43.82599" lon="6.9792">
        <ele>1510.7</ele>
        <time>2013-01-24T11:03:32Z</time>
      </trkpt>
      <trkpt lat="43.82606" lon="6.97918">
        <ele>1511.2</ele>
        <time>2013-01-24T11:03:35Z</time>
      </trkpt>
      <trkpt lat="43.82614" lon="6.97914">
        <ele>1511.4</ele>
        <time>2013-01-24T11:03:39Z</time>
      </trkpt>
      <trkpt lat="43.8262" lon="6.97896">
        <ele>1509</ele>
        <time>2013-01-24T11:04:01Z</time>
      </trkpt>
      <trkpt lat="43.8262" lon="6.97892">
        <ele>1509.7</ele>
        <time>2013-01-24T11:04:03Z</time>
      </trkpt>
      <trkpt lat="43.82619" lon="6.9785">
        <ele>1506</ele>
        <time>2013-01-24T11:04:13Z</time>
      </trkpt>
      <trkpt lat="43.82626" lon="6.97833">
        <ele>1506</ele>
        <time>2013-01-24T11:04:17Z</time>
      </trkpt>
      <trkpt lat="43.82635" lon="6.97816">
        <ele>1505</ele>
        <time>2013-01-24T11:04:21Z</time>
      </trkpt>
      <trkpt lat="43.82638" lon="6.9781">
        <ele>1505.5</ele>
        <time>2013-01-24T11:04:23Z</time>
      </trkpt>
      <trkpt lat="43.8264" lon="6.97801">
        <ele>1504.8</ele>
        <time>2013-01-24T11:04:25Z</time>
      </trkpt>
      <trkpt lat="43.82642" lon="6.97788">
        <ele>1504</ele>
        <time>2013-01-24T11:04:28Z</time>
      </trkpt>
      <trkpt lat="43.82643" lon="6.97776">
        <ele>1503.6</ele>
        <time>2013-01-24T11:04:32Z</time>
      </trkpt>
      <trkpt lat="43.82645" lon="6.97765">
        <ele>1503.4</ele>
        <time>2013-01-24T11:04:35Z</time>
      </trkpt>
      <trkpt lat="43.82647" lon="6.97757">
        <ele>1503.1</ele>
        <time>2013-01-24T11:04:37Z</time>
      </trkpt>
      <trkpt lat="43.82649" lon="6.97749">
        <ele>1502.8</ele>
        <time>2013-01-24T11:04:39Z</time>
      </trkpt>
      <trkpt lat="43.82651" lon="6.97741">
        <ele>1502.4</ele>
        <time>2013-01-24T11:04:41Z</time>
      </trkpt>
      <trkpt lat="43.82653" lon="6.97732">
        <ele>1502.1</ele>
        <time>2013-01-24T11:04:43Z</time>
      </trkpt>
      <trkpt lat="43.82656" lon="6.97725">
        <ele>1502</ele>
        <time>2013-01-24T11:04:45Z</time>
      </trkpt>
      <trkpt lat="43.8266" lon="6.97714">
        <ele>1500.9</ele>
        <time>2013-01-24T11:04:48Z</time>
      </trkpt>
      <trkpt lat="43.82664" lon="6.97707">
        <ele>1500.4</ele>
        <time>2013-01-24T11:04:50Z</time>
      </trkpt>
      <trkpt lat="43.82668" lon="6.97698">
        <ele>1499.8</ele>
        <time>2013-01-24T11:04:52Z</time>
      </trkpt>
      <trkpt lat="43.82674" lon="6.97688">
        <ele>1499.1</ele>
        <time>2013-01-24T11:04:54Z</time>
      </trkpt>
      <trkpt lat="43.82676" lon="6.97682">
        <ele>1498.9</ele>
        <time>2013-01-24T11:04:55Z</time>
      </trkpt>
      <trkpt lat="43.82678" lon="6.97677">
        <ele>1498.5</ele>
        <time>2013-01-24T11:04:56Z</time>
      </trkpt>
      <trkpt lat="43.82681" lon="6.97671">
        <ele>1498.3</ele>
        <time>2013-01-24T11:04:57Z</time>
      </trkpt>
      <trkpt lat="43.82685" lon="6.97667">
        <ele>1498.1</ele>
        <time>2013-01-24T11:04:58Z</time>
      </trkpt>
      <trkpt lat="43.82689" lon="6.97663">
        <ele>1497.5</ele>
        <time>2013-01-24T11:04:59Z</time>
      </trkpt>
      <trkpt lat="43.82693" lon="6.97657">
        <ele>1497.1</ele>
        <time>2013-01-24T11:05:00Z</time>
      </trkpt>
      <trkpt lat="43.82694" lon="6.97649">
        <ele>1496.8</ele>
        <time>2013-01-24T11:05:01Z</time>
      </trkpt>
      <trkpt lat="43.82696" lon="6.97641">
        <ele>1496</ele>
        <time>2013-01-24T11:05:02Z</time>
      </trkpt>
      <trkpt lat="43.82696" lon="6.97633">
        <ele>1495.4</ele>
        <time>2013-01-24T11:05:03Z</time>
      </trkpt>
      <trkpt lat="43.82697" lon="6.97624">
        <ele>1494.9</ele>
        <time>2013-01-24T11:05:04Z</time>
      </trkpt>
      <trkpt lat="43.82698" lon="6.97615">
        <ele>1493.9</ele>
        <time>2013-01-24T11:05:05Z</time>
      </trkpt>
      <trkpt lat="43.82699" lon="6.97606">
        <ele>1493.2</ele>
        <time>2013-01-24T11:05:06Z</time>
      </trkpt>
      <trkpt lat="43.82702" lon="6.97598">
        <ele>1492.7</ele>
        <time>2013-01-24T11:05:07Z</time>
      </trkpt>
      <trkpt lat="43.82707" lon="6.97592">
        <ele>1491.4</ele>
        <time>2013-01-24T11:05:08Z</time>
      </trkpt>
      <trkpt lat="43.82713" lon="6.97589">
        <ele>1490.5</ele>
        <time>2013-01-24T11:05:09Z</time>
      </trkpt>
      <trkpt lat="43.82718" lon="6.97584">
        <ele>1489.8</ele>
        <time>2013-01-24T11:05:10Z</time>
      </trkpt>
      <trkpt lat="43.82721" lon="6.97576">
        <ele>1489.3</ele>
        <time>2013-01-24T11:05:11Z</time>
      </trkpt>
      <trkpt lat="43.82722" lon="6.97567">
        <ele>1488.4</ele>
        <time>2013-01-24T11:05:12Z</time>
      </trkpt>
      <trkpt lat="43.82724" lon="6.97557">
        <ele>1487.7</ele>
        <time>2013-01-24T11:05:13Z</time>
      </trkpt>
      <trkpt lat="43.82728" lon="6.97549">
        <ele>1487.2</ele>
        <time>2013-01-24T11:05:14Z</time>
      </trkpt>
      <trkpt lat="43.82733" lon="6.97543">
        <ele>1485.8</ele>
        <time>2013-01-24T11:05:15Z</time>
      </trkpt>
      <trkpt lat="43.8274" lon="6.97539">
        <ele>1484.8</ele>
        <time>2013-01-24T11:05:16Z</time>
      </trkpt>
      <trkpt lat="43.82747" lon="6.97534">
        <ele>1484</ele>
        <time>2013-01-24T11:05:17Z</time>
      </trkpt>
      <trkpt lat="43.82752" lon="6.97526">
        <ele>1481.5</ele>
        <time>2013-01-24T11:05:18Z</time>
      </trkpt>
      <trkpt lat="43.82758" lon="6.97518">
        <ele>1479.6</ele>
        <time>2013-01-24T11:05:19Z</time>
      </trkpt>
      <trkpt lat="43.82766" lon="6.97513">
        <ele>1478.2</ele>
        <time>2013-01-24T11:05:20Z</time>
      </trkpt>
      <trkpt lat="43.82773" lon="6.97507">
        <ele>1475.8</ele>
        <time>2013-01-24T11:05:21Z</time>
      </trkpt>
      <trkpt lat="43.82778" lon="6.97497">
        <ele>1474</ele>
        <time>2013-01-24T11:05:22Z</time>
      </trkpt>
      <trkpt lat="43.82783" lon="6.97486">
        <ele>1472.6</ele>
        <time>2013-01-24T11:05:23Z</time>
      </trkpt>
      <trkpt lat="43.82787" lon="6.97474">
        <ele>1469.9</ele>
        <time>2013-01-24T11:05:24Z</time>
      </trkpt>
      <trkpt lat="43.8279" lon="6.97461">
        <ele>1467.8</ele>
        <time>2013-01-24T11:05:25Z</time>
      </trkpt>
      <trkpt lat="43.82795" lon="6.97448">
        <ele>1466.2</ele>
        <time>2013-01-24T11:05:26Z</time>
      </trkpt>
      <trkpt lat="43.82801" lon="6.97438">
        <ele>1465</ele>
        <time>2013-01-24T11:05:27Z</time>
      </trkpt>
      <trkpt lat="43.82807" lon="6.97429">
        <ele>1462.7</ele>
        <time>2013-01-24T11:05:28Z</time>
      </trkpt>
      <trkpt lat="43.82812" lon="6.9742">
        <ele>1460.9</ele>
        <time>2013-01-24T11:05:29Z</time>
      </trkpt>
      <trkpt lat="43.82817" lon="6.9741">
        <ele>1459.6</ele>
        <time>2013-01-24T11:05:30Z</time>
      </trkpt>
      <trkpt lat="43.82822" lon="6.974">
        <ele>1457.8</ele>
        <time>2013-01-24T11:05:31Z</time>
      </trkpt>
      <trkpt lat="43.82827" lon="6.9739">
        <ele>1456.5</ele>
        <time>2013-01-24T11:05:32Z</time>
      </trkpt>
      <trkpt lat="43.82832" lon="6.97381">
        <ele>1455.6</ele>
        <time>2013-01-24T11:05:33Z</time>
      </trkpt>
      <trkpt lat="43.82838" lon="6.97373">
        <ele>1453.6</ele>
        <time>2013-01-24T11:05:34Z</time>
      </trkpt>
      <trkpt lat="43.82845" lon="6.97366">
        <ele>1452.2</ele>
        <time>2013-01-24T11:05:35Z</time>
      </trkpt>
      <trkpt lat="43.82851" lon="6.97359">
        <ele>1451.1</ele>
        <time>2013-01-24T11:05:36Z</time>
      </trkpt>
      <trkpt lat="43.82856" lon="6.97352">
        <ele>1449.8</ele>
        <time>2013-01-24T11:05:37Z</time>
      </trkpt>
      <trkpt lat="43.82859" lon="6.97344">
        <ele>1448.8</ele>
        <time>2013-01-24T11:05:38Z</time>
      </trkpt>
      <trkpt lat="43.82863" lon="6.97336">
        <ele>1448</ele>
        <time>2013-01-24T11:05:39Z</time>
      </trkpt>
      <trkpt lat="43.82866" lon="6.97329">
        <ele>1447.2</ele>
        <time>2013-01-24T11:05:40Z</time>
      </trkpt>
      <trkpt lat="43.82871" lon="6.97324">
        <ele>1446.5</ele>
        <time>2013-01-24T11:05:41Z</time>
      </trkpt>
      <trkpt lat="43.82876" lon="6.97321">
        <ele>1446</ele>
        <time>2013-01-24T11:05:42Z</time>
      </trkpt>
      <trkpt lat="43.8288" lon="6.97321">
        <ele>1444.5</ele>
        <time>2013-01-24T11:05:43Z</time>
      </trkpt>
      <trkpt lat="43.82888" lon="6.97318">
        <ele>1442.5</ele>
        <time>2013-01-24T11:05:45Z</time>
      </trkpt>
      <trkpt lat="43.82891" lon="6.97306">
        <ele>1438</ele>
        <time>2013-01-24T11:06:39Z</time>
      </trkpt>
      <trkpt lat="43.82891" lon="6.97304">
        <ele>1437.6</ele>
        <time>2013-01-24T11:06:40Z</time>
      </trkpt>
      <trkpt lat="43.82896" lon="6.97286">
        <ele>1436.5</ele>
        <time>2013-01-24T11:06:44Z</time>
      </trkpt>
      <trkpt lat="43.82898" lon="6.97279">
        <ele>1436.3</ele>
        <time>2013-01-24T11:06:45Z</time>
      </trkpt>
      <trkpt lat="43.82901" lon="6.97271">
        <ele>1436.1</ele>
        <time>2013-01-24T11:06:46Z</time>
      </trkpt>
      <trkpt lat="43.82905" lon="6.97262">
        <ele>1435.3</ele>
        <time>2013-01-24T11:06:47Z</time>
      </trkpt>
      <trkpt lat="43.82908" lon="6.97252">
        <ele>1434.8</ele>
        <time>2013-01-24T11:06:48Z</time>
      </trkpt>
      <trkpt lat="43.82913" lon="6.97242">
        <ele>1434.4</ele>
        <time>2013-01-24T11:06:49Z</time>
      </trkpt>
      <trkpt lat="43.82917" lon="6.97231">
        <ele>1432.6</ele>
        <time>2013-01-24T11:06:50Z</time>
      </trkpt>
      <trkpt lat="43.82922" lon="6.97219">
        <ele>1431.3</ele>
        <time>2013-01-24T11:06:51Z</time>
      </trkpt>
      <trkpt lat="43.82927" lon="6.97207">
        <ele>1430.4</ele>
        <time>2013-01-24T11:06:52Z</time>
      </trkpt>
      <trkpt lat="43.82932" lon="6.97194">
        <ele>1429.2</ele>
        <time>2013-01-24T11:06:53Z</time>
      </trkpt>
      <trkpt lat="43.82936" lon="6.97183">
        <ele>1428.3</ele>
        <time>2013-01-24T11:06:54Z</time>
      </trkpt>
      <trkpt lat="43.82941" lon="6.97171">
        <ele>1427.7</ele>
        <time>2013-01-24T11:06:55Z</time>
      </trkpt>
      <trkpt lat="43.82946" lon="6.9716">
        <ele>1426.1</ele>
        <time>2013-01-24T11:06:56Z</time>
      </trkpt>
      <trkpt lat="43.82951" lon="6.97149">
        <ele>1424.9</ele>
        <time>2013-01-24T11:06:57Z</time>
      </trkpt>
      <trkpt lat="43.82956" lon="6.97138">
        <ele>1424</ele>
        <time>2013-01-24T11:06:58Z</time>
      </trkpt>
      <trkpt lat="43.82961" lon="6.97127">
        <ele>1422.3</ele>
        <time>2013-01-24T11:06:59Z</time>
      </trkpt>
      <trkpt lat="43.82965" lon="6.97116">
        <ele>1421</ele>
        <time>2013-01-24T11:07:00Z</time>
      </trkpt>
      <trkpt lat="43.82969" lon="6.97106">
        <ele>1420.1</ele>
        <time>2013-01-24T11:07:01Z</time>
      </trkpt>
      <trkpt lat="43.82973" lon="6.97097">
        <ele>1419.4</ele>
        <time>2013-01-24T11:07:02Z</time>
      </trkpt>
      <trkpt lat="43.82977" lon="6.97087">
        <ele>1417.8</ele>
        <time>2013-01-24T11:07:03Z</time>
      </trkpt>
      <trkpt lat="43.82981" lon="6.97077">
        <ele>1416.6</ele>
        <time>2013-01-24T11:07:04Z</time>
      </trkpt>
      <trkpt lat="43.82985" lon="6.97067">
        <ele>1415.7</ele>
        <time>2013-01-24T11:07:05Z</time>
      </trkpt>
      <trkpt lat="43.82987" lon="6.97056">
        <ele>1414</ele>
        <time>2013-01-24T11:07:06Z</time>
      </trkpt>
      <trkpt lat="43.82989" lon="6.97047">
        <ele>1412.7</ele>
        <time>2013-01-24T11:07:07Z</time>
      </trkpt>
      <trkpt lat="43.8299" lon="6.97037">
        <ele>1411.8</ele>
        <time>2013-01-24T11:07:08Z</time>
      </trkpt>
      <trkpt lat="43.8299" lon="6.97029">
        <ele>1410.8</ele>
        <time>2013-01-24T11:07:09Z</time>
      </trkpt>
      <trkpt lat="43.8299" lon="6.97022">
        <ele>1410.1</ele>
        <time>2013-01-24T11:07:10Z</time>
      </trkpt>
      <trkpt lat="43.82989" lon="6.9701">
        <ele>1409.5</ele>
        <time>2013-01-24T11:07:12Z</time>
      </trkpt>
      <trkpt lat="43.82989" lon="6.97001">
        <ele>1409.3</ele>
        <time>2013-01-24T11:07:14Z</time>
      </trkpt>
      <trkpt lat="43.82988" lon="6.9699">
        <ele>1408.1</ele>
        <time>2013-01-24T11:07:18Z</time>
      </trkpt>
      <trkpt lat="43.82986" lon="6.96978">
        <ele>1407.9</ele>
        <time>2013-01-24T11:07:42Z</time>
      </trkpt>
      <trkpt lat="43.82986" lon="6.96977">
        <ele>1407.8</ele>
        <time>2013-01-24T11:07:43Z</time>
      </trkpt>
      <trkpt lat="43.82995" lon="6.96976">
        <ele>1405.3</ele>
        <time>2013-01-24T11:10:00Z</time>
      </trkpt>
      <trkpt lat="43.82989" lon="6.96967">
        <ele>1408.1</ele>
        <time>2013-01-24T11:13:32Z</time>
      </trkpt>
      <trkpt lat="43.82982" lon="6.96945">
        <ele>1407</ele>
        <time>2013-01-24T11:13:49Z</time>
      </trkpt>
      <trkpt lat="43.8298" lon="6.96934">
        <ele>1408.4</ele>
        <time>2013-01-24T11:13:56Z</time>
      </trkpt>
      <trkpt lat="43.82977" lon="6.96923">
        <ele>1409</ele>
        <time>2013-01-24T11:14:03Z</time>
      </trkpt>
      <trkpt lat="43.82976" lon="6.96912">
        <ele>1408.9</ele>
        <time>2013-01-24T11:14:10Z</time>
      </trkpt>
      <trkpt lat="43.82975" lon="6.96901">
        <ele>1409.2</ele>
        <time>2013-01-24T11:14:17Z</time>
      </trkpt>
      <trkpt lat="43.82973" lon="6.96889">
        <ele>1409</ele>
        <time>2013-01-24T11:14:24Z</time>
      </trkpt>
      <trkpt lat="43.82972" lon="6.96877">
        <ele>1409.1</ele>
        <time>2013-01-24T11:14:31Z</time>
      </trkpt>
      <trkpt lat="43.8297" lon="6.96867">
        <ele>1408.7</ele>
        <time>2013-01-24T11:14:47Z</time>
      </trkpt>
      <trkpt lat="43.8297" lon="6.96865">
        <ele>1409</ele>
        <time>2013-01-24T11:14:48Z</time>
      </trkpt>
      <trkpt lat="43.82964" lon="6.96845">
        <ele>1410</ele>
        <time>2013-01-24T11:15:06Z</time>
      </trkpt>
      <trkpt lat="43.82959" lon="6.96835">
        <ele>1410.1</ele>
        <time>2013-01-24T11:15:13Z</time>
      </trkpt>
      <trkpt lat="43.82953" lon="6.96827">
        <ele>1410.8</ele>
        <time>2013-01-24T11:15:20Z</time>
      </trkpt>
      <trkpt lat="43.82947" lon="6.96819">
        <ele>1411.4</ele>
        <time>2013-01-24T11:15:27Z</time>
      </trkpt>
      <trkpt lat="43.82942" lon="6.9681">
        <ele>1411.3</ele>
        <time>2013-01-24T11:15:34Z</time>
      </trkpt>
      <trkpt lat="43.82935" lon="6.96803">
        <ele>1411.5</ele>
        <time>2013-01-24T11:15:42Z</time>
      </trkpt>
      <trkpt lat="43.82929" lon="6.96795">
        <ele>1410.4</ele>
        <time>2013-01-24T11:15:50Z</time>
      </trkpt>
      <trkpt lat="43.82928" lon="6.96794">
        <ele>1411.2</ele>
        <time>2013-01-24T11:15:51Z</time>
      </trkpt>
      <trkpt lat="43.82916" lon="6.9678">
        <ele>1413.6</ele>
        <time>2013-01-24T11:16:06Z</time>
      </trkpt>
      <trkpt lat="43.8291" lon="6.96772">
        <ele>1413.4</ele>
        <time>2013-01-24T11:16:14Z</time>
      </trkpt>
      <trkpt lat="43.82904" lon="6.96766">
        <ele>1413.3</ele>
        <time>2013-01-24T11:16:22Z</time>
      </trkpt>
      <trkpt lat="43.82896" lon="6.96761">
        <ele>1415.1</ele>
        <time>2013-01-24T11:16:30Z</time>
      </trkpt>
      <trkpt lat="43.82888" lon="6.96757">
        <ele>1414.5</ele>
        <time>2013-01-24T11:16:38Z</time>
      </trkpt>
      <trkpt lat="43.8288" lon="6.96754">
        <ele>1415.2</ele>
        <time>2013-01-24T11:16:51Z</time>
      </trkpt>
      <trkpt lat="43.82872" lon="6.96752">
        <ele>1415.4</ele>
        <time>2013-01-24T11:17:00Z</time>
      </trkpt>
      <trkpt lat="43.82871" lon="6.96752">
        <ele>1415.9</ele>
        <time>2013-01-24T11:17:01Z</time>
      </trkpt>
      <trkpt lat="43.82863" lon="6.96747">
        <ele>1416.4</ele>
        <time>2013-01-24T11:18:20Z</time>
      </trkpt>
      <trkpt lat="43.82853" lon="6.96757">
        <ele>1420.5</ele>
        <time>2013-01-24T11:18:53Z</time>
      </trkpt>
      <trkpt lat="43.82844" lon="6.96758">
        <ele>1423</ele>
        <time>2013-01-24T11:19:16Z</time>
      </trkpt>
      <trkpt lat="43.82836" lon="6.96753">
        <ele>1423.9</ele>
        <time>2013-01-24T11:19:27Z</time>
      </trkpt>
      <trkpt lat="43.82836" lon="6.96753">
        <ele>1424.4</ele>
        <time>2013-01-24T11:19:28Z</time>
      </trkpt>
      <trkpt lat="43.82829" lon="6.96762">
        <ele>1427.1</ele>
        <time>2013-01-24T11:21:16Z</time>
      </trkpt>
      <trkpt lat="43.82814" lon="6.96767">
        <ele>1431.2</ele>
        <time>2013-01-24T11:21:42Z</time>
      </trkpt>
      <trkpt lat="43.82805" lon="6.96767">
        <ele>1432.1</ele>
        <time>2013-01-24T11:21:55Z</time>
      </trkpt>
      <trkpt lat="43.82796" lon="6.96764">
        <ele>1434.5</ele>
        <time>2013-01-24T11:22:08Z</time>
      </trkpt>
      <trkpt lat="43.82787" lon="6.96763">
        <ele>1435.6</ele>
        <time>2013-01-24T11:22:21Z</time>
      </trkpt>
      <trkpt lat="43.82787" lon="6.96763">
        <ele>1435.9</ele>
        <time>2013-01-24T11:22:22Z</time>
      </trkpt>
      <trkpt lat="43.82771" lon="6.96768">
        <ele>1439.6</ele>
        <time>2013-01-24T11:22:49Z</time>
      </trkpt>
      <trkpt lat="43.82763" lon="6.96771">
        <ele>1442.5</ele>
        <time>2013-01-24T11:23:04Z</time>
      </trkpt>
      <trkpt lat="43.82754" lon="6.96773">
        <ele>1444.4</ele>
        <time>2013-01-24T11:23:18Z</time>
      </trkpt>
      <trkpt lat="43.82745" lon="6.96774">
        <ele>1445.7</ele>
        <time>2013-01-24T11:23:31Z</time>
      </trkpt>
      <trkpt lat="43.82744" lon="6.96774">
        <ele>1446.1</ele>
        <time>2013-01-24T11:23:32Z</time>
      </trkpt>
      <trkpt lat="43.82734" lon="6.96781">
        <ele>1451</ele>
        <time>2013-01-24T11:24:11Z</time>
      </trkpt>
      <trkpt lat="43.82728" lon="6.96771">
        <ele>1454</ele>
        <time>2013-01-24T11:24:32Z</time>
      </trkpt>
      <trkpt lat="43.82722" lon="6.96762">
        <ele>1455.5</ele>
        <time>2013-01-24T11:24:46Z</time>
      </trkpt>
      <trkpt lat="43.82722" lon="6.96762">
        <ele>1455.7</ele>
        <time>2013-01-24T11:24:47Z</time>
      </trkpt>
      <trkpt lat="43.8271" lon="6.96774">
        <ele>1460.2</ele>
        <time>2013-01-24T11:25:31Z</time>
      </trkpt>
      <trkpt lat="43.82705" lon="6.96784">
        <ele>1463.8</ele>
        <time>2013-01-24T11:26:01Z</time>
      </trkpt>
      <trkpt lat="43.82705" lon="6.96785">
        <ele>1463.9</ele>
        <time>2013-01-24T11:26:02Z</time>
      </trkpt>
      <trkpt lat="43.82693" lon="6.96802">
        <ele>1471.5</ele>
        <time>2013-01-24T11:26:54Z</time>
      </trkpt>
      <trkpt lat="43.82685" lon="6.96804">
        <ele>1474.9</ele>
        <time>2013-01-24T11:27:50Z</time>
      </trkpt>
      <trkpt lat="43.82684" lon="6.96805">
        <ele>1475.2</ele>
        <time>2013-01-24T11:27:51Z</time>
      </trkpt>
      <trkpt lat="43.82676" lon="6.96804">
        <ele>1479.9</ele>
        <time>2013-01-24T11:29:17Z</time>
      </trkpt>
      <trkpt lat="43.8266" lon="6.96802">
        <ele>1487.1</ele>
        <time>2013-01-24T11:30:11Z</time>
      </trkpt>
      <trkpt lat="43.82651" lon="6.968">
        <ele>1490.4</ele>
        <time>2013-01-24T11:30:50Z</time>
      </trkpt>
      <trkpt lat="43.82651" lon="6.96799">
        <ele>1490.3</ele>
        <time>2013-01-24T11:30:51Z</time>
      </trkpt>
      <trkpt lat="43.8264" lon="6.96783">
        <ele>1493.3</ele>
        <time>2013-01-24T11:31:17Z</time>
      </trkpt>
      <trkpt lat="43.82634" lon="6.96792">
        <ele>1496.8</ele>
        <time>2013-01-24T11:31:38Z</time>
      </trkpt>
      <trkpt lat="43.82627" lon="6.96783">
        <ele>1498.6</ele>
        <time>2013-01-24T11:32:05Z</time>
      </trkpt>
      <trkpt lat="43.82627" lon="6.96782">
        <ele>1498.8</ele>
        <time>2013-01-24T11:32:06Z</time>
      </trkpt>
      <trkpt lat="43.82613" lon="6.96791">
        <ele>1506.2</ele>
        <time>2013-01-24T11:33:03Z</time>
      </trkpt>
      <trkpt lat="43.82606" lon="6.96799">
        <ele>1507.1</ele>
        <time>2013-01-24T11:33:42Z</time>
      </trkpt>
      <trkpt lat="43.82606" lon="6.96799">
        <ele>1507</ele>
        <time>2013-01-24T11:33:43Z</time>
      </trkpt>
      <trkpt lat="43.82591" lon="6.96788">
        <ele>1512</ele>
        <time>2013-01-24T11:34:20Z</time>
      </trkpt>
      <trkpt lat="43.82583" lon="6.96786">
        <ele>1513</ele>
        <time>2013-01-24T11:34:33Z</time>
      </trkpt>
      <trkpt lat="43.82574" lon="6.96783">
        <ele>1516.9</ele>
        <time>2013-01-24T11:34:46Z</time>
      </trkpt>
      <trkpt lat="43.82573" lon="6.96783">
        <ele>1517.3</ele>
        <time>2013-01-24T11:34:47Z</time>
      </trkpt>
      <trkpt lat="43.82558" lon="6.96786">
        <ele>1519.2</ele>
        <time>2013-01-24T11:35:11Z</time>
      </trkpt>
      <trkpt lat="43.82549" lon="6.96788">
        <ele>1519.5</ele>
        <time>2013-01-24T11:35:23Z</time>
      </trkpt>
      <trkpt lat="43.82541" lon="6.96792">
        <ele>1521.8</ele>
        <time>2013-01-24T11:35:41Z</time>
      </trkpt>
      <trkpt lat="43.82533" lon="6.96788">
        <ele>1524.6</ele>
        <time>2013-01-24T11:35:56Z</time>
      </trkpt>
      <trkpt lat="43.82532" lon="6.96788">
        <ele>1524.8</ele>
        <time>2013-01-24T11:35:57Z</time>
      </trkpt>
      <trkpt lat="43.82516" lon="6.96786">
        <ele>1528.7</ele>
        <time>2013-01-24T11:36:26Z</time>
      </trkpt>
      <trkpt lat="43.82507" lon="6.96788">
        <ele>1531.3</ele>
        <time>2013-01-24T11:36:53Z</time>
      </trkpt>
      <trkpt lat="43.82499" lon="6.96793">
        <ele>1533.7</ele>
        <time>2013-01-24T11:37:08Z</time>
      </trkpt>
      <trkpt lat="43.82498" lon="6.96793">
        <ele>1534.1</ele>
        <time>2013-01-24T11:37:09Z</time>
      </trkpt>
      <trkpt lat="43.82484" lon="6.96794">
        <ele>1538</ele>
        <time>2013-01-24T11:37:59Z</time>
      </trkpt>
      <trkpt lat="43.82476" lon="6.96787">
        <ele>1539.7</ele>
        <time>2013-01-24T11:38:14Z</time>
      </trkpt>
      <trkpt lat="43.82476" lon="6.96787">
        <ele>1539.5</ele>
        <time>2013-01-24T11:38:15Z</time>
      </trkpt>
      <trkpt lat="43.82459" lon="6.96788">
        <ele>1545.1</ele>
        <time>2013-01-24T11:38:47Z</time>
      </trkpt>
      <trkpt lat="43.82452" lon="6.96794">
        <ele>1547.9</ele>
        <time>2013-01-24T11:39:29Z</time>
      </trkpt>
      <trkpt lat="43.82451" lon="6.96794">
        <ele>1548</ele>
        <time>2013-01-24T11:39:30Z</time>
      </trkpt>
      <trkpt lat="43.82435" lon="6.96801">
        <ele>1552.8</ele>
        <time>2013-01-24T11:40:00Z</time>
      </trkpt>
      <trkpt lat="43.82427" lon="6.96802">
        <ele>1555</ele>
        <time>2013-01-24T11:40:15Z</time>
      </trkpt>
      <trkpt lat="43.82419" lon="6.96807">
        <ele>1558.5</ele>
        <time>2013-01-24T11:40:40Z</time>
      </trkpt>
      <trkpt lat="43.82418" lon="6.96808">
        <ele>1558.4</ele>
        <time>2013-01-24T11:40:41Z</time>
      </trkpt>
      <trkpt lat="43.82415" lon="6.96831">
        <ele>1564.1</ele>
        <time>2013-01-24T11:41:14Z</time>
      </trkpt>
      <trkpt lat="43.82406" lon="6.96833">
        <ele>1566.1</ele>
        <time>2013-01-24T11:42:34Z</time>
      </trkpt>
      <trkpt lat="43.82406" lon="6.96833">
        <ele>1566.7</ele>
        <time>2013-01-24T11:42:35Z</time>
      </trkpt>
      <trkpt lat="43.82389" lon="6.96831">
        <ele>1571.5</ele>
        <time>2013-01-24T11:43:02Z</time>
      </trkpt>
      <trkpt lat="43.8238" lon="6.96831">
        <ele>1573</ele>
        <time>2013-01-24T11:43:16Z</time>
      </trkpt>
      <trkpt lat="43.82372" lon="6.96828">
        <ele>1576.1</ele>
        <time>2013-01-24T11:43:41Z</time>
      </trkpt>
      <trkpt lat="43.82371" lon="6.96828">
        <ele>1576.4</ele>
        <time>2013-01-24T11:43:42Z</time>
      </trkpt>
      <trkpt lat="43.82354" lon="6.96826">
        <ele>1581.2</ele>
        <time>2013-01-24T11:44:13Z</time>
      </trkpt>
      <trkpt lat="43.82345" lon="6.96829">
        <ele>1583</ele>
        <time>2013-01-24T11:44:27Z</time>
      </trkpt>
      <trkpt lat="43.82337" lon="6.9683">
        <ele>1584.8</ele>
        <time>2013-01-24T11:44:41Z</time>
      </trkpt>
      <trkpt lat="43.82328" lon="6.96832">
        <ele>1586.3</ele>
        <time>2013-01-24T11:44:58Z</time>
      </trkpt>
      <trkpt lat="43.82327" lon="6.96832">
        <ele>1586.3</ele>
        <time>2013-01-24T11:44:59Z</time>
      </trkpt>
      <trkpt lat="43.82311" lon="6.96834">
        <ele>1589.1</ele>
        <time>2013-01-24T11:45:25Z</time>
      </trkpt>
      <trkpt lat="43.82302" lon="6.96835">
        <ele>1592.3</ele>
        <time>2013-01-24T11:45:41Z</time>
      </trkpt>
      <trkpt lat="43.82293" lon="6.96835">
        <ele>1593.6</ele>
        <time>2013-01-24T11:46:09Z</time>
      </trkpt>
      <trkpt lat="43.82293" lon="6.96835">
        <ele>1593.6</ele>
        <time>2013-01-24T11:46:10Z</time>
      </trkpt>
      <trkpt lat="43.82276" lon="6.96833">
        <ele>1598.9</ele>
        <time>2013-01-24T11:46:43Z</time>
      </trkpt>
      <trkpt lat="43.82268" lon="6.96834">
        <ele>1601.4</ele>
        <time>2013-01-24T11:47:08Z</time>
      </trkpt>
      <trkpt lat="43.82259" lon="6.96834">
        <ele>1604.5</ele>
        <time>2013-01-24T11:47:25Z</time>
      </trkpt>
      <trkpt lat="43.82259" lon="6.96834">
        <ele>1604.7</ele>
        <time>2013-01-24T11:47:26Z</time>
      </trkpt>
      <trkpt lat="43.82242" lon="6.96836">
        <ele>1608.9</ele>
        <time>2013-01-24T11:47:57Z</time>
      </trkpt>
      <trkpt lat="43.82233" lon="6.96837">
        <ele>1610.3</ele>
        <time>2013-01-24T11:48:38Z</time>
      </trkpt>
      <trkpt lat="43.82233" lon="6.96837">
        <ele>1610.9</ele>
        <time>2013-01-24T11:48:39Z</time>
      </trkpt>
      <trkpt lat="43.82216" lon="6.96834">
        <ele>1613.2</ele>
        <time>2013-01-24T11:49:04Z</time>
      </trkpt>
      <trkpt lat="43.82208" lon="6.96833">
        <ele>1615.7</ele>
        <time>2013-01-24T11:49:17Z</time>
      </trkpt>
      <trkpt lat="43.82199" lon="6.96833">
        <ele>1618.2</ele>
        <time>2013-01-24T11:49:33Z</time>
      </trkpt>
      <trkpt lat="43.8219" lon="6.96835">
        <ele>1620.6</ele>
        <time>2013-01-24T11:49:49Z</time>
      </trkpt>
      <trkpt lat="43.8219" lon="6.96835">
        <ele>1620.9</ele>
        <time>2013-01-24T11:49:50Z</time>
      </trkpt>
      <trkpt lat="43.82173" lon="6.96838">
        <ele>1624.4</ele>
        <time>2013-01-24T11:50:33Z</time>
      </trkpt>
      <trkpt lat="43.82165" lon="6.96841">
        <ele>1627.7</ele>
        <time>2013-01-24T11:50:47Z</time>
      </trkpt>
      <trkpt lat="43.82156" lon="6.96844">
        <ele>1629</ele>
        <time>2013-01-24T11:51:02Z</time>
      </trkpt>
      <trkpt lat="43.82156" lon="6.96844">
        <ele>1629.3</ele>
        <time>2013-01-24T11:51:03Z</time>
      </trkpt>
      <trkpt lat="43.82139" lon="6.9685">
        <ele>1634</ele>
        <time>2013-01-24T11:52:41Z</time>
      </trkpt>
      <trkpt lat="43.82139" lon="6.96851">
        <ele>1634.6</ele>
        <time>2013-01-24T11:52:42Z</time>
      </trkpt>
      <trkpt lat="43.82125" lon="6.96865">
        <ele>1639.1</ele>
        <time>2013-01-24T11:53:09Z</time>
      </trkpt>
      <trkpt lat="43.82117" lon="6.9687">
        <ele>1642.1</ele>
        <time>2013-01-24T11:53:26Z</time>
      </trkpt>
      <trkpt lat="43.8211" lon="6.96875">
        <ele>1643.8</ele>
        <time>2013-01-24T11:53:42Z</time>
      </trkpt>
      <trkpt lat="43.82109" lon="6.96876">
        <ele>1644</ele>
        <time>2013-01-24T11:53:43Z</time>
      </trkpt>
      <trkpt lat="43.82094" lon="6.96884">
        <ele>1650.8</ele>
        <time>2013-01-24T11:54:12Z</time>
      </trkpt>
      <trkpt lat="43.82085" lon="6.96886">
        <ele>1652.4</ele>
        <time>2013-01-24T11:55:27Z</time>
      </trkpt>
      <trkpt lat="43.82085" lon="6.96886">
        <ele>1652.8</ele>
        <time>2013-01-24T11:55:28Z</time>
      </trkpt>
      <trkpt lat="43.82069" lon="6.96889">
        <ele>1655.8</ele>
        <time>2013-01-24T11:55:53Z</time>
      </trkpt>
      <trkpt lat="43.8206" lon="6.9689">
        <ele>1655.7</ele>
        <time>2013-01-24T11:56:05Z</time>
      </trkpt>
      <trkpt lat="43.82052" lon="6.96889">
        <ele>1657.7</ele>
        <time>2013-01-24T11:56:19Z</time>
      </trkpt>
      <trkpt lat="43.82044" lon="6.96885">
        <ele>1658.9</ele>
        <time>2013-01-24T11:56:35Z</time>
      </trkpt>
      <trkpt lat="43.82043" lon="6.96885">
        <ele>1659</ele>
        <time>2013-01-24T11:56:36Z</time>
      </trkpt>
      <trkpt lat="43.82036" lon="6.96877">
        <ele>1662.8</ele>
        <time>2013-01-24T11:58:42Z</time>
      </trkpt>
      <trkpt lat="43.82023" lon="6.96863">
        <ele>1667.4</ele>
        <time>2013-01-24T11:59:51Z</time>
      </trkpt>
      <trkpt lat="43.82022" lon="6.96862">
        <ele>1667.4</ele>
        <time>2013-01-24T11:59:52Z</time>
      </trkpt>
      <trkpt lat="43.82008" lon="6.96848">
        <ele>1673.9</ele>
        <time>2013-01-24T12:00:26Z</time>
      </trkpt>
      <trkpt lat="43.82001" lon="6.96841">
        <ele>1676.3</ele>
        <time>2013-01-24T12:00:45Z</time>
      </trkpt>
      <trkpt lat="43.81993" lon="6.96836">
        <ele>1678.6</ele>
        <time>2013-01-24T12:01:04Z</time>
      </trkpt>
      <trkpt lat="43.81993" lon="6.96835">
        <ele>1678.7</ele>
        <time>2013-01-24T12:01:05Z</time>
      </trkpt>
      <trkpt lat="43.81986" lon="6.96828">
        <ele>1680.7</ele>
        <time>2013-01-24T12:03:12Z</time>
      </trkpt>
      <trkpt lat="43.81971" lon="6.96816">
        <ele>1686.3</ele>
        <time>2013-01-24T12:04:01Z</time>
      </trkpt>
      <trkpt lat="43.81964" lon="6.96809">
        <ele>1690.6</ele>
        <time>2013-01-24T12:04:19Z</time>
      </trkpt>
      <trkpt lat="43.81964" lon="6.96809">
        <ele>1690.8</ele>
        <time>2013-01-24T12:04:20Z</time>
      </trkpt>
      <trkpt lat="43.81956" lon="6.96803">
        <ele>1693.5</ele>
        <time>2013-01-24T12:05:39Z</time>
      </trkpt>
      <trkpt lat="43.81942" lon="6.96789">
        <ele>1699.1</ele>
        <time>2013-01-24T12:06:34Z</time>
      </trkpt>
      <trkpt lat="43.81935" lon="6.96782">
        <ele>1700.6</ele>
        <time>2013-01-24T12:07:02Z</time>
      </trkpt>
      <trkpt lat="43.81934" lon="6.96781">
        <ele>1700.8</ele>
        <time>2013-01-24T12:07:03Z</time>
      </trkpt>
      <trkpt lat="43.81941" lon="6.96766">
        <ele>1705.6</ele>
        <time>2013-01-24T12:22:19Z</time>
      </trkpt>
      <trkpt lat="43.81943" lon="6.96764">
        <ele>1705.3</ele>
        <time>2013-01-24T12:22:20Z</time>
      </trkpt>
      <trkpt lat="43.81952" lon="6.96772">
        <ele>1702.6</ele>
        <time>2013-01-24T12:22:26Z</time>
      </trkpt>
      <trkpt lat="43.81959" lon="6.96771">
        <ele>1700.7</ele>
        <time>2013-01-24T12:22:29Z</time>
      </trkpt>
      <trkpt lat="43.81964" lon="6.96761">
        <ele>1699.1</ele>
        <time>2013-01-24T12:22:32Z</time>
      </trkpt>
      <trkpt lat="43.81972" lon="6.96761">
        <ele>1697.3</ele>
        <time>2013-01-24T12:22:36Z</time>
      </trkpt>
      <trkpt lat="43.8198" lon="6.96758">
        <ele>1693.5</ele>
        <time>2013-01-24T12:22:41Z</time>
      </trkpt>
      <trkpt lat="43.81989" lon="6.96761">
        <ele>1689.3</ele>
        <time>2013-01-24T12:22:46Z</time>
      </trkpt>
      <trkpt lat="43.81995" lon="6.96754">
        <ele>1687.2</ele>
        <time>2013-01-24T12:22:49Z</time>
      </trkpt>
      <trkpt lat="43.82002" lon="6.96758">
        <ele>1684.5</ele>
        <time>2013-01-24T12:22:53Z</time>
      </trkpt>
      <trkpt lat="43.82008" lon="6.96749">
        <ele>1680.7</ele>
        <time>2013-01-24T12:22:58Z</time>
      </trkpt>
      <trkpt lat="43.82015" lon="6.96741">
        <ele>1677.7</ele>
        <time>2013-01-24T12:23:03Z</time>
      </trkpt>
      <trkpt lat="43.82022" lon="6.96747">
        <ele>1675.9</ele>
        <time>2013-01-24T12:23:06Z</time>
      </trkpt>
      <trkpt lat="43.82026" lon="6.96737">
        <ele>1673.5</ele>
        <time>2013-01-24T12:23:09Z</time>
      </trkpt>
      <trkpt lat="43.82029" lon="6.96729">
        <ele>1671.7</ele>
        <time>2013-01-24T12:23:11Z</time>
      </trkpt>
      <trkpt lat="43.82035" lon="6.9673">
        <ele>1670.2</ele>
        <time>2013-01-24T12:23:13Z</time>
      </trkpt>
      <trkpt lat="43.82042" lon="6.9673">
        <ele>1668.5</ele>
        <time>2013-01-24T12:23:15Z</time>
      </trkpt>
      <trkpt lat="43.82046" lon="6.96722">
        <ele>1666.5</ele>
        <time>2013-01-24T12:23:17Z</time>
      </trkpt>
      <trkpt lat="43.82054" lon="6.96718">
        <ele>1663.7</ele>
        <time>2013-01-24T12:23:20Z</time>
      </trkpt>
      <trkpt lat="43.82058" lon="6.96716">
        <ele>1662.9</ele>
        <time>2013-01-24T12:23:21Z</time>
      </trkpt>
      <trkpt lat="43.82064" lon="6.96703">
        <ele>1660.8</ele>
        <time>2013-01-24T12:23:24Z</time>
      </trkpt>
      <trkpt lat="43.82068" lon="6.96695">
        <ele>1659.5</ele>
        <time>2013-01-24T12:23:26Z</time>
      </trkpt>
      <trkpt lat="43.82072" lon="6.96687">
        <ele>1658.2</ele>
        <time>2013-01-24T12:23:28Z</time>
      </trkpt>
      <trkpt lat="43.82076" lon="6.96679">
        <ele>1656.7</ele>
        <time>2013-01-24T12:23:30Z</time>
      </trkpt>
      <trkpt lat="43.82081" lon="6.9667">
        <ele>1655.1</ele>
        <time>2013-01-24T12:23:32Z</time>
      </trkpt>
      <trkpt lat="43.82087" lon="6.96665">
        <ele>1653.2</ele>
        <time>2013-01-24T12:23:35Z</time>
      </trkpt>
      <trkpt lat="43.82094" lon="6.96658">
        <ele>1649.8</ele>
        <time>2013-01-24T12:23:38Z</time>
      </trkpt>
      <trkpt lat="43.82096" lon="6.96646">
        <ele>1646.2</ele>
        <time>2013-01-24T12:25:01Z</time>
      </trkpt>
      <trkpt lat="43.82097" lon="6.96645">
        <ele>1646.1</ele>
        <time>2013-01-24T12:25:02Z</time>
      </trkpt>
      <trkpt lat="43.82109" lon="6.96633">
        <ele>1645.4</ele>
        <time>2013-01-24T12:25:08Z</time>
      </trkpt>
      <trkpt lat="43.82116" lon="6.96628">
        <ele>1641.5</ele>
        <time>2013-01-24T12:25:12Z</time>
      </trkpt>
      <trkpt lat="43.82123" lon="6.96624">
        <ele>1638.2</ele>
        <time>2013-01-24T12:25:15Z</time>
      </trkpt>
      <trkpt lat="43.8213" lon="6.96624">
        <ele>1635.2</ele>
        <time>2013-01-24T12:25:19Z</time>
      </trkpt>
      <trkpt lat="43.82137" lon="6.96618">
        <ele>1628.3</ele>
        <time>2013-01-24T12:25:43Z</time>
      </trkpt>
      <trkpt lat="43.82145" lon="6.96617">
        <ele>1628.1</ele>
        <time>2013-01-24T12:25:47Z</time>
      </trkpt>
      <trkpt lat="43.82152" lon="6.96612">
        <ele>1627.4</ele>
        <time>2013-01-24T12:25:50Z</time>
      </trkpt>
      <trkpt lat="43.82159" lon="6.96612">
        <ele>1623</ele>
        <time>2013-01-24T12:25:54Z</time>
      </trkpt>
      <trkpt lat="43.82167" lon="6.96611">
        <ele>1618.9</ele>
        <time>2013-01-24T12:25:58Z</time>
      </trkpt>
      <trkpt lat="43.82174" lon="6.96616">
        <ele>1615.1</ele>
        <time>2013-01-24T12:26:02Z</time>
      </trkpt>
      <trkpt lat="43.82175" lon="6.9662">
        <ele>1613.9</ele>
        <time>2013-01-24T12:26:03Z</time>
      </trkpt>
      <trkpt lat="43.82188" lon="6.96621">
        <ele>1606.7</ele>
        <time>2013-01-24T12:26:11Z</time>
      </trkpt>
      <trkpt lat="43.82193" lon="6.96613">
        <ele>1603.5</ele>
        <time>2013-01-24T12:26:15Z</time>
      </trkpt>
      <trkpt lat="43.82202" lon="6.96612">
        <ele>1599.5</ele>
        <time>2013-01-24T12:26:19Z</time>
      </trkpt>
      <trkpt lat="43.82207" lon="6.96603">
        <ele>1592.1</ele>
        <time>2013-01-24T12:26:49Z</time>
      </trkpt>
      <trkpt lat="43.82213" lon="6.96595">
        <ele>1591.4</ele>
        <time>2013-01-24T12:26:53Z</time>
      </trkpt>
      <trkpt lat="43.82218" lon="6.96597">
        <ele>1590.9</ele>
        <time>2013-01-24T12:26:55Z</time>
      </trkpt>
      <trkpt lat="43.82222" lon="6.96607">
        <ele>1590.4</ele>
        <time>2013-01-24T12:26:57Z</time>
      </trkpt>
      <trkpt lat="43.8223" lon="6.9661">
        <ele>1578.1</ele>
        <time>2013-01-24T12:27:34Z</time>
      </trkpt>
      <trkpt lat="43.82231" lon="6.96609">
        <ele>1578.4</ele>
        <time>2013-01-24T12:27:35Z</time>
      </trkpt>
      <trkpt lat="43.82244" lon="6.96609">
        <ele>1576.8</ele>
        <time>2013-01-24T12:27:41Z</time>
      </trkpt>
      <trkpt lat="43.82249" lon="6.96618">
        <ele>1573.5</ele>
        <time>2013-01-24T12:27:44Z</time>
      </trkpt>
      <trkpt lat="43.82257" lon="6.9662">
        <ele>1568.8</ele>
        <time>2013-01-24T12:27:48Z</time>
      </trkpt>
      <trkpt lat="43.82262" lon="6.96628">
        <ele>1566.9</ele>
        <time>2013-01-24T12:27:51Z</time>
      </trkpt>
      <trkpt lat="43.82271" lon="6.96628">
        <ele>1561.2</ele>
        <time>2013-01-24T12:27:55Z</time>
      </trkpt>
      <trkpt lat="43.82279" lon="6.9663">
        <ele>1556.7</ele>
        <time>2013-01-24T12:27:59Z</time>
      </trkpt>
      <trkpt lat="43.82287" lon="6.96632">
        <ele>1552.3</ele>
        <time>2013-01-24T12:28:03Z</time>
      </trkpt>
      <trkpt lat="43.82295" lon="6.96628">
        <ele>1548.8</ele>
        <time>2013-01-24T12:28:06Z</time>
      </trkpt>
      <trkpt lat="43.82302" lon="6.96632">
        <ele>1545.3</ele>
        <time>2013-01-24T12:28:09Z</time>
      </trkpt>
      <trkpt lat="43.82309" lon="6.96632">
        <ele>1541.9</ele>
        <time>2013-01-24T12:28:12Z</time>
      </trkpt>
      <trkpt lat="43.82317" lon="6.96628">
        <ele>1537.6</ele>
        <time>2013-01-24T12:28:16Z</time>
      </trkpt>
      <trkpt lat="43.82323" lon="6.96621">
        <ele>1533.2</ele>
        <time>2013-01-24T12:28:19Z</time>
      </trkpt>
      <trkpt lat="43.8233" lon="6.96626">
        <ele>1531.3</ele>
        <time>2013-01-24T12:28:21Z</time>
      </trkpt>
      <trkpt lat="43.82336" lon="6.9662">
        <ele>1529.9</ele>
        <time>2013-01-24T12:28:23Z</time>
      </trkpt>
      <trkpt lat="43.82344" lon="6.96618">
        <ele>1525</ele>
        <time>2013-01-24T12:28:26Z</time>
      </trkpt>
      <trkpt lat="43.82352" lon="6.96619">
        <ele>1520.9</ele>
        <time>2013-01-24T12:28:29Z</time>
      </trkpt>
      <trkpt lat="43.82359" lon="6.96617">
        <ele>1516.6</ele>
        <time>2013-01-24T12:28:32Z</time>
      </trkpt>
      <trkpt lat="43.82366" lon="6.96619">
        <ele>1515.1</ele>
        <time>2013-01-24T12:28:34Z</time>
      </trkpt>
      <trkpt lat="43.8237" lon="6.96612">
        <ele>1513.3</ele>
        <time>2013-01-24T12:28:36Z</time>
      </trkpt>
      <trkpt lat="43.82373" lon="6.96608">
        <ele>1512.4</ele>
        <time>2013-01-24T12:28:37Z</time>
      </trkpt>
      <trkpt lat="43.82384" lon="6.96612">
        <ele>1510</ele>
        <time>2013-01-24T12:28:40Z</time>
      </trkpt>
      <trkpt lat="43.82389" lon="6.96606">
        <ele>1508.5</ele>
        <time>2013-01-24T12:28:42Z</time>
      </trkpt>
      <trkpt lat="43.82397" lon="6.96605">
        <ele>1505.9</ele>
        <time>2013-01-24T12:28:45Z</time>
      </trkpt>
      <trkpt lat="43.82404" lon="6.96601">
        <ele>1502.8</ele>
        <time>2013-01-24T12:28:47Z</time>
      </trkpt>
      <trkpt lat="43.82411" lon="6.966">
        <ele>1500.4</ele>
        <time>2013-01-24T12:28:49Z</time>
      </trkpt>
      <trkpt lat="43.82417" lon="6.96592">
        <ele>1494.1</ele>
        <time>2013-01-24T12:29:00Z</time>
      </trkpt>
      <trkpt lat="43.82424" lon="6.96588">
        <ele>1492.9</ele>
        <time>2013-01-24T12:29:03Z</time>
      </trkpt>
      <trkpt lat="43.82429" lon="6.96579">
        <ele>1491.8</ele>
        <time>2013-01-24T12:29:05Z</time>
      </trkpt>
      <trkpt lat="43.82436" lon="6.96575">
        <ele>1490.8</ele>
        <time>2013-01-24T12:29:07Z</time>
      </trkpt>
      <trkpt lat="43.82441" lon="6.96573">
        <ele>1490.2</ele>
        <time>2013-01-24T12:29:08Z</time>
      </trkpt>
      <trkpt lat="43.82445" lon="6.96569">
        <ele>1489.8</ele>
        <time>2013-01-24T12:29:09Z</time>
      </trkpt>
      <trkpt lat="43.82449" lon="6.96564">
        <ele>1489.5</ele>
        <time>2013-01-24T12:29:10Z</time>
      </trkpt>
      <trkpt lat="43.82454" lon="6.96554">
        <ele>1486.8</ele>
        <time>2013-01-24T12:29:12Z</time>
      </trkpt>
      <trkpt lat="43.82458" lon="6.96553">
        <ele>1486</ele>
        <time>2013-01-24T12:29:13Z</time>
      </trkpt>
      <trkpt lat="43.82467" lon="6.9655">
        <ele>1483.9</ele>
        <time>2013-01-24T12:29:15Z</time>
      </trkpt>
      <trkpt lat="43.8247" lon="6.96546">
        <ele>1482.8</ele>
        <time>2013-01-24T12:29:16Z</time>
      </trkpt>
      <trkpt lat="43.82474" lon="6.96541">
        <ele>1482</ele>
        <time>2013-01-24T12:29:17Z</time>
      </trkpt>
      <trkpt lat="43.82478" lon="6.96538">
        <ele>1480.8</ele>
        <time>2013-01-24T12:29:18Z</time>
      </trkpt>
      <trkpt lat="43.82482" lon="6.96535">
        <ele>1479.9</ele>
        <time>2013-01-24T12:29:19Z</time>
      </trkpt>
      <trkpt lat="43.82487" lon="6.96532">
        <ele>1479.2</ele>
        <time>2013-01-24T12:29:20Z</time>
      </trkpt>
      <trkpt lat="43.82492" lon="6.96531">
        <ele>1477.6</ele>
        <time>2013-01-24T12:29:21Z</time>
      </trkpt>
      <trkpt lat="43.82498" lon="6.96529">
        <ele>1476.3</ele>
        <time>2013-01-24T12:29:22Z</time>
      </trkpt>
      <trkpt lat="43.82501" lon="6.96523">
        <ele>1475.4</ele>
        <time>2013-01-24T12:29:23Z</time>
      </trkpt>
      <trkpt lat="43.82506" lon="6.96518">
        <ele>1473.7</ele>
        <time>2013-01-24T12:29:24Z</time>
      </trkpt>
      <trkpt lat="43.8251" lon="6.96512">
        <ele>1472.3</ele>
        <time>2013-01-24T12:29:25Z</time>
      </trkpt>
      <trkpt lat="43.82518" lon="6.96507">
        <ele>1470</ele>
        <time>2013-01-24T12:29:27Z</time>
      </trkpt>
      <trkpt lat="43.82525" lon="6.96502">
        <ele>1468.3</ele>
        <time>2013-01-24T12:29:29Z</time>
      </trkpt>
      <trkpt lat="43.82532" lon="6.96496">
        <ele>1466.8</ele>
        <time>2013-01-24T12:29:31Z</time>
      </trkpt>
      <trkpt lat="43.82538" lon="6.96496">
        <ele>1465.7</ele>
        <time>2013-01-24T12:29:33Z</time>
      </trkpt>
      <trkpt lat="43.82544" lon="6.96497">
        <ele>1464</ele>
        <time>2013-01-24T12:29:35Z</time>
      </trkpt>
      <trkpt lat="43.8255" lon="6.96499">
        <ele>1463</ele>
        <time>2013-01-24T12:29:37Z</time>
      </trkpt>
      <trkpt lat="43.82553" lon="6.96501">
        <ele>1462.5</ele>
        <time>2013-01-24T12:29:38Z</time>
      </trkpt>
      <trkpt lat="43.82565" lon="6.96507">
        <ele>1461.6</ele>
        <time>2013-01-24T12:29:41Z</time>
      </trkpt>
      <trkpt lat="43.82573" lon="6.96512">
        <ele>1460.7</ele>
        <time>2013-01-24T12:29:43Z</time>
      </trkpt>
      <trkpt lat="43.82578" lon="6.96513">
        <ele>1460.3</ele>
        <time>2013-01-24T12:29:44Z</time>
      </trkpt>
      <trkpt lat="43.82583" lon="6.96515">
        <ele>1459.9</ele>
        <time>2013-01-24T12:29:45Z</time>
      </trkpt>
      <trkpt lat="43.82587" lon="6.96519">
        <ele>1459.6</ele>
        <time>2013-01-24T12:29:46Z</time>
      </trkpt>
      <trkpt lat="43.82592" lon="6.96522">
        <ele>1459.1</ele>
        <time>2013-01-24T12:29:47Z</time>
      </trkpt>
      <trkpt lat="43.82598" lon="6.96523">
        <ele>1458.7</ele>
        <time>2013-01-24T12:29:48Z</time>
      </trkpt>
      <trkpt lat="43.82603" lon="6.96525">
        <ele>1458.4</ele>
        <time>2013-01-24T12:29:49Z</time>
      </trkpt>
      <trkpt lat="43.82608" lon="6.96529">
        <ele>1457.1</ele>
        <time>2013-01-24T12:29:50Z</time>
      </trkpt>
      <trkpt lat="43.82624" lon="6.96543">
        <ele>1453</ele>
        <time>2013-01-24T12:29:53Z</time>
      </trkpt>
      <trkpt lat="43.82632" lon="6.96548">
        <ele>1452.2</ele>
        <time>2013-01-24T12:29:55Z</time>
      </trkpt>
      <trkpt lat="43.82636" lon="6.96553">
        <ele>1451.6</ele>
        <time>2013-01-24T12:29:56Z</time>
      </trkpt>
      <trkpt lat="43.82642" lon="6.96555">
        <ele>1451.1</ele>
        <time>2013-01-24T12:29:57Z</time>
      </trkpt>
      <trkpt lat="43.82647" lon="6.96558">
        <ele>1450.8</ele>
        <time>2013-01-24T12:29:58Z</time>
      </trkpt>
      <trkpt lat="43.82652" lon="6.96562">
        <ele>1450.2</ele>
        <time>2013-01-24T12:29:59Z</time>
      </trkpt>
      <trkpt lat="43.82657" lon="6.96567">
        <ele>1449.8</ele>
        <time>2013-01-24T12:30:00Z</time>
      </trkpt>
      <trkpt lat="43.82662" lon="6.96571">
        <ele>1449.5</ele>
        <time>2013-01-24T12:30:01Z</time>
      </trkpt>
      <trkpt lat="43.82668" lon="6.96575">
        <ele>1448.4</ele>
        <time>2013-01-24T12:30:02Z</time>
      </trkpt>
      <trkpt lat="43.82673" lon="6.96579">
        <ele>1447.7</ele>
        <time>2013-01-24T12:30:03Z</time>
      </trkpt>
      <trkpt lat="43.82677" lon="6.96584">
        <ele>1447.1</ele>
        <time>2013-01-24T12:30:04Z</time>
      </trkpt>
      <trkpt lat="43.82682" lon="6.96588">
        <ele>1446.7</ele>
        <time>2013-01-24T12:30:05Z</time>
      </trkpt>
      <trkpt lat="43.82687" lon="6.96592">
        <ele>1445.6</ele>
        <time>2013-01-24T12:30:06Z</time>
      </trkpt>
      <trkpt lat="43.82692" lon="6.96596">
        <ele>1444.8</ele>
        <time>2013-01-24T12:30:07Z</time>
      </trkpt>
      <trkpt lat="43.82697" lon="6.96601">
        <ele>1444.2</ele>
        <time>2013-01-24T12:30:08Z</time>
      </trkpt>
      <trkpt lat="43.82702" lon="6.96605">
        <ele>1442.9</ele>
        <time>2013-01-24T12:30:09Z</time>
      </trkpt>
      <trkpt lat="43.82707" lon="6.96608">
        <ele>1442</ele>
        <time>2013-01-24T12:30:10Z</time>
      </trkpt>
      <trkpt lat="43.82712" lon="6.96613">
        <ele>1441.3</ele>
        <time>2013-01-24T12:30:11Z</time>
      </trkpt>
      <trkpt lat="43.82717" lon="6.96617">
        <ele>1440.2</ele>
        <time>2013-01-24T12:30:12Z</time>
      </trkpt>
      <trkpt lat="43.82722" lon="6.9662">
        <ele>1439.4</ele>
        <time>2013-01-24T12:30:13Z</time>
      </trkpt>
      <trkpt lat="43.82727" lon="6.96624">
        <ele>1438.7</ele>
        <time>2013-01-24T12:30:14Z</time>
      </trkpt>
      <trkpt lat="43.82732" lon="6.96628">
        <ele>1438.1</ele>
        <time>2013-01-24T12:30:15Z</time>
      </trkpt>
      <trkpt lat="43.82737" lon="6.9663">
        <ele>1437.6</ele>
        <time>2013-01-24T12:30:16Z</time>
      </trkpt>
      <trkpt lat="43.82742" lon="6.96633">
        <ele>1437.2</ele>
        <time>2013-01-24T12:30:17Z</time>
      </trkpt>
      <trkpt lat="43.82747" lon="6.96636">
        <ele>1436</ele>
        <time>2013-01-24T12:30:18Z</time>
      </trkpt>
      <trkpt lat="43.82751" lon="6.96639">
        <ele>1435.2</ele>
        <time>2013-01-24T12:30:19Z</time>
      </trkpt>
      <trkpt lat="43.82756" lon="6.96641">
        <ele>1434.5</ele>
        <time>2013-01-24T12:30:20Z</time>
      </trkpt>
      <trkpt lat="43.82761" lon="6.96643">
        <ele>1434</ele>
        <time>2013-01-24T12:30:21Z</time>
      </trkpt>
      <trkpt lat="43.82765" lon="6.96646">
        <ele>1433.9</ele>
        <time>2013-01-24T12:30:22Z</time>
      </trkpt>
      <trkpt lat="43.82769" lon="6.9665">
        <ele>1433.8</ele>
        <time>2013-01-24T12:30:23Z</time>
      </trkpt>
      <trkpt lat="43.82774" lon="6.96653">
        <ele>1433.8</ele>
        <time>2013-01-24T12:30:24Z</time>
      </trkpt>
      <trkpt lat="43.82778" lon="6.96656">
        <ele>1433.6</ele>
        <time>2013-01-24T12:30:25Z</time>
      </trkpt>
      <trkpt lat="43.82783" lon="6.96658">
        <ele>1433.5</ele>
        <time>2013-01-24T12:30:26Z</time>
      </trkpt>
      <trkpt lat="43.82788" lon="6.96659">
        <ele>1433.4</ele>
        <time>2013-01-24T12:30:27Z</time>
      </trkpt>
      <trkpt lat="43.82793" lon="6.96662">
        <ele>1432.4</ele>
        <time>2013-01-24T12:30:28Z</time>
      </trkpt>
      <trkpt lat="43.82798" lon="6.96664">
        <ele>1431.6</ele>
        <time>2013-01-24T12:30:29Z</time>
      </trkpt>
      <trkpt lat="43.82802" lon="6.96667">
        <ele>1431.1</ele>
        <time>2013-01-24T12:30:30Z</time>
      </trkpt>
      <trkpt lat="43.82807" lon="6.96668">
        <ele>1430.5</ele>
        <time>2013-01-24T12:30:31Z</time>
      </trkpt>
      <trkpt lat="43.82812" lon="6.96669">
        <ele>1430</ele>
        <time>2013-01-24T12:30:32Z</time>
      </trkpt>
      <trkpt lat="43.82817" lon="6.9667">
        <ele>1429.7</ele>
        <time>2013-01-24T12:30:33Z</time>
      </trkpt>
      <trkpt lat="43.82821" lon="6.96673">
        <ele>1429</ele>
        <time>2013-01-24T12:30:34Z</time>
      </trkpt>
      <trkpt lat="43.82825" lon="6.96676">
        <ele>1428.6</ele>
        <time>2013-01-24T12:30:35Z</time>
      </trkpt>
      <trkpt lat="43.82829" lon="6.96679">
        <ele>1428.2</ele>
        <time>2013-01-24T12:30:36Z</time>
      </trkpt>
      <trkpt lat="43.82834" lon="6.96681">
        <ele>1428</ele>
        <time>2013-01-24T12:30:37Z</time>
      </trkpt>
      <trkpt lat="43.82839" lon="6.96683">
        <ele>1427.4</ele>
        <time>2013-01-24T12:30:38Z</time>
      </trkpt>
      <trkpt lat="43.82844" lon="6.96685">
        <ele>1427</ele>
        <time>2013-01-24T12:30:39Z</time>
      </trkpt>
      <trkpt lat="43.82849" lon="6.96688">
        <ele>1426.8</ele>
        <time>2013-01-24T12:30:40Z</time>
      </trkpt>
      <trkpt lat="43.82854" lon="6.96691">
        <ele>1426.3</ele>
        <time>2013-01-24T12:30:41Z</time>
      </trkpt>
      <trkpt lat="43.82859" lon="6.96692">
        <ele>1425.9</ele>
        <time>2013-01-24T12:30:42Z</time>
      </trkpt>
      <trkpt lat="43.82864" lon="6.96693">
        <ele>1425.6</ele>
        <time>2013-01-24T12:30:43Z</time>
      </trkpt>
      <trkpt lat="43.82868" lon="6.96695">
        <ele>1425</ele>
        <time>2013-01-24T12:30:44Z</time>
      </trkpt>
      <trkpt lat="43.82873" lon="6.96698">
        <ele>1424.6</ele>
        <time>2013-01-24T12:30:45Z</time>
      </trkpt>
      <trkpt lat="43.82877" lon="6.96701">
        <ele>1424.3</ele>
        <time>2013-01-24T12:30:46Z</time>
      </trkpt>
      <trkpt lat="43.82881" lon="6.96705">
        <ele>1424</ele>
        <time>2013-01-24T12:30:47Z</time>
      </trkpt>
      <trkpt lat="43.82885" lon="6.96708">
        <ele>1423.8</ele>
        <time>2013-01-24T12:30:48Z</time>
      </trkpt>
      <trkpt lat="43.82889" lon="6.96712">
        <ele>1423.7</ele>
        <time>2013-01-24T12:30:49Z</time>
      </trkpt>
      <trkpt lat="43.82894" lon="6.96715">
        <ele>1423.2</ele>
        <time>2013-01-24T12:30:50Z</time>
      </trkpt>
      <trkpt lat="43.82898" lon="6.96718">
        <ele>1422.8</ele>
        <time>2013-01-24T12:30:51Z</time>
      </trkpt>
      <trkpt lat="43.82902" lon="6.96721">
        <ele>1422.5</ele>
        <time>2013-01-24T12:30:52Z</time>
      </trkpt>
      <trkpt lat="43.82906" lon="6.96726">
        <ele>1422.3</ele>
        <time>2013-01-24T12:30:53Z</time>
      </trkpt>
      <trkpt lat="43.8291" lon="6.96731">
        <ele>1421.7</ele>
        <time>2013-01-24T12:30:54Z</time>
      </trkpt>
      <trkpt lat="43.82913" lon="6.96736">
        <ele>1421.2</ele>
        <time>2013-01-24T12:30:55Z</time>
      </trkpt>
      <trkpt lat="43.82918" lon="6.96746">
        <ele>1420.1</ele>
        <time>2013-01-24T12:30:57Z</time>
      </trkpt>
      <trkpt lat="43.82923" lon="6.96756">
        <ele>1419.1</ele>
        <time>2013-01-24T12:30:59Z</time>
      </trkpt>
      <trkpt lat="43.82926" lon="6.96764">
        <ele>1418.2</ele>
        <time>2013-01-24T12:31:01Z</time>
      </trkpt>
      <trkpt lat="43.82929" lon="6.96772">
        <ele>1418.3</ele>
        <time>2013-01-24T12:31:03Z</time>
      </trkpt>
      <trkpt lat="43.82932" lon="6.96779">
        <ele>1418.7</ele>
        <time>2013-01-24T12:31:05Z</time>
      </trkpt>
      <trkpt lat="43.82937" lon="6.9679">
        <ele>1416.8</ele>
        <time>2013-01-24T12:31:08Z</time>
      </trkpt>
      <trkpt lat="43.8294" lon="6.96799">
        <ele>1417.4</ele>
        <time>2013-01-24T12:31:11Z</time>
      </trkpt>
      <trkpt lat="43.82944" lon="6.96809">
        <ele>1417.3</ele>
        <time>2013-01-24T12:31:14Z</time>
      </trkpt>
      <trkpt lat="43.82948" lon="6.96818">
        <ele>1416.7</ele>
        <time>2013-01-24T12:31:18Z</time>
      </trkpt>
      <trkpt lat="43.82954" lon="6.96828">
        <ele>1416.6</ele>
        <time>2013-01-24T12:31:22Z</time>
      </trkpt>
      <trkpt lat="43.82959" lon="6.96837">
        <ele>1416.8</ele>
        <time>2013-01-24T12:31:25Z</time>
      </trkpt>
      <trkpt lat="43.82963" lon="6.96847">
        <ele>1416.5</ele>
        <time>2013-01-24T12:31:28Z</time>
      </trkpt>
      <trkpt lat="43.82966" lon="6.96854">
        <ele>1415.2</ele>
        <time>2013-01-24T12:31:30Z</time>
      </trkpt>
      <trkpt lat="43.82968" lon="6.96862">
        <ele>1414.8</ele>
        <time>2013-01-24T12:31:32Z</time>
      </trkpt>
      <trkpt lat="43.8297" lon="6.9687">
        <ele>1414.8</ele>
        <time>2013-01-24T12:31:34Z</time>
      </trkpt>
      <trkpt lat="43.82971" lon="6.96879">
        <ele>1414.9</ele>
        <time>2013-01-24T12:31:36Z</time>
      </trkpt>
      <trkpt lat="43.82972" lon="6.96891">
        <ele>1414.9</ele>
        <time>2013-01-24T12:31:39Z</time>
      </trkpt>
      <trkpt lat="43.82973" lon="6.96895">
        <ele>1414.9</ele>
        <time>2013-01-24T12:31:40Z</time>
      </trkpt>
      <trkpt lat="43.82975" lon="6.96914">
        <ele>1414.3</ele>
        <time>2013-01-24T12:31:45Z</time>
      </trkpt>
      <trkpt lat="43.82977" lon="6.96924">
        <ele>1414.4</ele>
        <time>2013-01-24T12:31:48Z</time>
      </trkpt>
      <trkpt lat="43.8298" lon="6.96935">
        <ele>1414.5</ele>
        <time>2013-01-24T12:31:52Z</time>
      </trkpt>
      <trkpt lat="43.82984" lon="6.96945">
        <ele>1413.8</ele>
        <time>2013-01-24T12:31:57Z</time>
      </trkpt>
      <trkpt lat="43.82988" lon="6.96955">
        <ele>1412.8</ele>
        <time>2013-01-24T12:32:03Z</time>
      </trkpt>
      <trkpt lat="43.82992" lon="6.96965">
        <ele>1414.6</ele>
        <time>2013-01-24T12:32:11Z</time>
      </trkpt>
      <trkpt lat="43.82997" lon="6.96976">
        <ele>1413.5</ele>
        <time>2013-01-24T12:32:18Z</time>
      </trkpt>
      <trkpt lat="43.83003" lon="6.96983">
        <ele>1412.6</ele>
        <time>2013-01-24T12:34:05Z</time>
      </trkpt>
      <trkpt lat="43.83004" lon="6.96984">
        <ele>1412.2</ele>
        <time>2013-01-24T12:34:06Z</time>
      </trkpt>
      <trkpt lat="43.83007" lon="6.97005">
        <ele>1412.5</ele>
        <time>2013-01-24T12:34:17Z</time>
      </trkpt>
      <trkpt lat="43.83008" lon="6.97016">
        <ele>1412.7</ele>
        <time>2013-01-24T12:34:23Z</time>
      </trkpt>
      <trkpt lat="43.8301" lon="6.97027">
        <ele>1411.6</ele>
        <time>2013-01-24T12:34:29Z</time>
      </trkpt>
      <trkpt lat="43.8301" lon="6.97039">
        <ele>1412.3</ele>
        <time>2013-01-24T12:34:35Z</time>
      </trkpt>
      <trkpt lat="43.8301" lon="6.9705">
        <ele>1413.1</ele>
        <time>2013-01-24T12:34:41Z</time>
      </trkpt>
      <trkpt lat="43.83012" lon="6.97061">
        <ele>1412.6</ele>
        <time>2013-01-24T12:34:47Z</time>
      </trkpt>
      <trkpt lat="43.83014" lon="6.97071">
        <ele>1412.9</ele>
        <time>2013-01-24T12:34:53Z</time>
      </trkpt>
      <trkpt lat="43.83014" lon="6.97083">
        <ele>1414.2</ele>
        <time>2013-01-24T12:35:01Z</time>
      </trkpt>
      <trkpt lat="43.83013" lon="6.97094">
        <ele>1413.4</ele>
        <time>2013-01-24T12:35:12Z</time>
      </trkpt>
      <trkpt lat="43.83012" lon="6.97096">
        <ele>1414.1</ele>
        <time>2013-01-24T12:35:13Z</time>
      </trkpt>
      <trkpt lat="43.83012" lon="6.97117">
        <ele>1414.1</ele>
        <time>2013-01-24T12:35:25Z</time>
      </trkpt>
      <trkpt lat="43.8301" lon="6.97128">
        <ele>1413.4</ele>
        <time>2013-01-24T12:35:31Z</time>
      </trkpt>
      <trkpt lat="43.83008" lon="6.9714">
        <ele>1414.4</ele>
        <time>2013-01-24T12:35:38Z</time>
      </trkpt>
      <trkpt lat="43.83009" lon="6.97151">
        <ele>1415</ele>
        <time>2013-01-24T12:35:44Z</time>
      </trkpt>
      <trkpt lat="43.83008" lon="6.97161">
        <ele>1415</ele>
        <time>2013-01-24T12:35:50Z</time>
      </trkpt>
      <trkpt lat="43.83008" lon="6.97172">
        <ele>1415.7</ele>
        <time>2013-01-24T12:35:56Z</time>
      </trkpt>
      <trkpt lat="43.83007" lon="6.97183">
        <ele>1417</ele>
        <time>2013-01-24T12:36:02Z</time>
      </trkpt>
      <trkpt lat="43.83007" lon="6.97195">
        <ele>1417.3</ele>
        <time>2013-01-24T12:36:09Z</time>
      </trkpt>
      <trkpt lat="43.83009" lon="6.97207">
        <ele>1418.4</ele>
        <time>2013-01-24T12:36:18Z</time>
      </trkpt>
      <trkpt lat="43.83009" lon="6.97208">
        <ele>1418.2</ele>
        <time>2013-01-24T12:36:19Z</time>
      </trkpt>
      <trkpt lat="43.83007" lon="6.97208">
        <ele>1418.1</ele>
        <time>2013-01-24T12:38:37Z</time>
      </trkpt>
      <trkpt lat="43.83007" lon="6.97208">
        <ele>1418.1</ele>
        <time>2013-01-24T12:38:37Z</time>
      </trkpt>
      <trkpt lat="43.83007" lon="6.97208">
        <ele>1416.8</ele>
        <time>2013-01-24T12:38:43Z</time>
      </trkpt>
    </trkseg>
  </trk>
</gpx>